<?xml version="1.0" encoding="UTF-8"?>
<gpx xmlns="http://www.topografix.com/GPX/1/1" xmlns:gpsies="http://www.gpsies.com/GPX/1/0" creator="GPSies http://www.gpsies.com - dorot2" version="1.1" xmlns:xsi="http://www.w3.org/2001/XMLSchema-instance" xsi:schemaLocation="http://www.topografix.com/GPX/1/1 http://www.topografix.com/GPX/1/1/gpx.xsd http://www.gpsies.com/GPX/1/0 http://www.gpsies.com/gpsies.xsd">
  <metadata>
    <name>dorot2</name>
    <author>
      <name>igor968</name>
      <link href="http://www.gpsies.com/mapUser.do?username=igor968">
        <text>igor968 on GPSies.com</text>
        <type>GPSiesUserOnWeb</type>
      </link>
    </author>
    <link href="http://www.gpsies.com/map.do?fileId=yztsqwbpobgsdjzr">
      <text>dorot2 on GPSies.com</text>
      <type>trackOnWeb</type>
    </link>
    <time>2016-02-25T15:30:23Z</time>
    <extensions>
      <gpsies:property>round trip</gpsies:property>
      <gpsies:trackLengthMeter>19952.93669050366</gpsies:trackLengthMeter>
      <gpsies:totalAscentMeter>193.0</gpsies:totalAscentMeter>
      <gpsies:totalDescentMeter>193.0</gpsies:totalDescentMeter>
      <gpsies:minHeightMeter>93.0</gpsies:minHeightMeter>
      <gpsies:maxHeightMeter>175.0</gpsies:maxHeightMeter>
    </extensions>
  </metadata>
  <trk>
    <name>dorot2 on GPSies.com</name>
    <link href="http://www.gpsies.com/map.do?fileId=yztsqwbpobgsdjzr">
      <type>trackOnWeb</type>
    </link>
    <link href="http://www.gpsies.com/charts/yz/map/yztsqwbpobgsdjzr_map.png">
      <type>elevationChartUrlMap</type>
    </link>
    <link href="http://www.gpsies.com/charts/yz/mapThumb/yztsqwbpobgsdjzr_mapThumb.png">
      <type>elevationChartUrlMapThumb</type>
    </link>
    <link href="http://www.gpsies.com/charts/yz/tab/yztsqwbpobgsdjzr_tab.png">
      <type>elevationChartUrlTab</type>
    </link>
    <trkseg>
      <trkpt lat="31.50995000" lon="34.64838980">
        <ele>96.000000</ele>
        <time>2010-01-01T00:00:00Z</time>
      </trkpt>
      <trkpt lat="31.50995000" lon="34.64838000">
        <ele>96.000000</ele>
        <time>2010-01-01T00:00:00Z</time>
      </trkpt>
      <trkpt lat="31.50969000" lon="34.64836000">
        <ele>96.000000</ele>
        <time>2010-01-01T00:00:10Z</time>
      </trkpt>
      <trkpt lat="31.50955000" lon="34.64833000">
        <ele>95.000000</ele>
        <time>2010-01-01T00:00:16Z</time>
      </trkpt>
      <trkpt lat="31.50912000" lon="34.64833000">
        <ele>96.000000</ele>
        <time>2010-01-01T00:00:33Z</time>
      </trkpt>
      <trkpt lat="31.50916000" lon="34.64832000">
        <ele>96.000000</ele>
        <time>2010-01-01T00:00:35Z</time>
      </trkpt>
      <trkpt lat="31.50882000" lon="34.64855000">
        <ele>96.000000</ele>
        <time>2010-01-01T00:00:51Z</time>
      </trkpt>
      <trkpt lat="31.50873000" lon="34.64864000">
        <ele>95.000000</ele>
        <time>2010-01-01T00:00:55Z</time>
      </trkpt>
      <trkpt lat="31.50855000" lon="34.64922000">
        <ele>96.000000</ele>
        <time>2010-01-01T00:01:16Z</time>
      </trkpt>
      <trkpt lat="31.50861000" lon="34.64978000">
        <ele>99.000000</ele>
        <time>2010-01-01T00:01:36Z</time>
      </trkpt>
      <trkpt lat="31.50856000" lon="34.65018000">
        <ele>99.000000</ele>
        <time>2010-01-01T00:01:49Z</time>
      </trkpt>
      <trkpt lat="31.50770000" lon="34.65097000">
        <ele>100.00000</ele>
        <time>2010-01-01T00:02:33Z</time>
      </trkpt>
      <trkpt lat="31.50749000" lon="34.65100000">
        <ele>99.000000</ele>
        <time>2010-01-01T00:02:42Z</time>
      </trkpt>
      <trkpt lat="31.50719000" lon="34.65085000">
        <ele>100.00000</ele>
        <time>2010-01-01T00:02:55Z</time>
      </trkpt>
      <trkpt lat="31.50697000" lon="34.65084000">
        <ele>99.000000</ele>
        <time>2010-01-01T00:03:03Z</time>
      </trkpt>
      <trkpt lat="31.50668000" lon="34.65078000">
        <ele>100.00000</ele>
        <time>2010-01-01T00:03:15Z</time>
      </trkpt>
      <trkpt lat="31.50633000" lon="34.65083000">
        <ele>97.000000</ele>
        <time>2010-01-01T00:03:29Z</time>
      </trkpt>
      <trkpt lat="31.50632000" lon="34.65083000">
        <ele>97.000000</ele>
        <time>2010-01-01T00:03:30Z</time>
      </trkpt>
      <trkpt lat="31.50589000" lon="34.65077000">
        <ele>96.000000</ele>
        <time>2010-01-01T00:03:47Z</time>
      </trkpt>
      <trkpt lat="31.50527000" lon="34.65058000">
        <ele>95.000000</ele>
        <time>2010-01-01T00:04:13Z</time>
      </trkpt>
      <trkpt lat="31.50520000" lon="34.65045000">
        <ele>95.000000</ele>
        <time>2010-01-01T00:04:18Z</time>
      </trkpt>
      <trkpt lat="31.50517000" lon="34.65032000">
        <ele>95.000000</ele>
        <time>2010-01-01T00:04:23Z</time>
      </trkpt>
      <trkpt lat="31.50509000" lon="34.65025000">
        <ele>96.000000</ele>
        <time>2010-01-01T00:04:27Z</time>
      </trkpt>
      <trkpt lat="31.50497000" lon="34.65026000">
        <ele>97.000000</ele>
        <time>2010-01-01T00:04:31Z</time>
      </trkpt>
      <trkpt lat="31.50487000" lon="34.65030000">
        <ele>97.000000</ele>
        <time>2010-01-01T00:04:36Z</time>
      </trkpt>
      <trkpt lat="31.50453000" lon="34.65012000">
        <ele>101.00000</ele>
        <time>2010-01-01T00:04:51Z</time>
      </trkpt>
      <trkpt lat="31.50441000" lon="34.65008000">
        <ele>102.00000</ele>
        <time>2010-01-01T00:04:56Z</time>
      </trkpt>
      <trkpt lat="31.50408000" lon="34.65033000">
        <ele>100.00000</ele>
        <time>2010-01-01T00:05:11Z</time>
      </trkpt>
      <trkpt lat="31.50374000" lon="34.65034000">
        <ele>100.00000</ele>
        <time>2010-01-01T00:05:25Z</time>
      </trkpt>
      <trkpt lat="31.50343000" lon="34.65060000">
        <ele>99.000000</ele>
        <time>2010-01-01T00:05:40Z</time>
      </trkpt>
      <trkpt lat="31.50320000" lon="34.65066000">
        <ele>101.00000</ele>
        <time>2010-01-01T00:05:50Z</time>
      </trkpt>
      <trkpt lat="31.50294000" lon="34.65078000">
        <ele>102.00000</ele>
        <time>2010-01-01T00:06:01Z</time>
      </trkpt>
      <trkpt lat="31.50288000" lon="34.65083000">
        <ele>101.00000</ele>
        <time>2010-01-01T00:06:04Z</time>
      </trkpt>
      <trkpt lat="31.50267000" lon="34.65077000">
        <ele>103.00000</ele>
        <time>2010-01-01T00:06:12Z</time>
      </trkpt>
      <trkpt lat="31.50242000" lon="34.65084000">
        <ele>104.00000</ele>
        <time>2010-01-01T00:06:23Z</time>
      </trkpt>
      <trkpt lat="31.50221000" lon="34.65100000">
        <ele>103.00000</ele>
        <time>2010-01-01T00:06:33Z</time>
      </trkpt>
      <trkpt lat="31.50209000" lon="34.65122000">
        <ele>104.00000</ele>
        <time>2010-01-01T00:06:42Z</time>
      </trkpt>
      <trkpt lat="31.50208000" lon="34.65131000">
        <ele>103.00000</ele>
        <time>2010-01-01T00:06:45Z</time>
      </trkpt>
      <trkpt lat="31.50202000" lon="34.65155000">
        <ele>103.00000</ele>
        <time>2010-01-01T00:06:53Z</time>
      </trkpt>
      <trkpt lat="31.50200000" lon="34.65183000">
        <ele>103.00000</ele>
        <time>2010-01-01T00:07:03Z</time>
      </trkpt>
      <trkpt lat="31.50206000" lon="34.65199000">
        <ele>102.00000</ele>
        <time>2010-01-01T00:07:09Z</time>
      </trkpt>
      <trkpt lat="31.50222000" lon="34.65225000">
        <ele>101.00000</ele>
        <time>2010-01-01T00:07:20Z</time>
      </trkpt>
      <trkpt lat="31.50252000" lon="34.65294000">
        <ele>101.00000</ele>
        <time>2010-01-01T00:07:46Z</time>
      </trkpt>
      <trkpt lat="31.50271000" lon="34.65318000">
        <ele>101.00000</ele>
        <time>2010-01-01T00:07:57Z</time>
      </trkpt>
      <trkpt lat="31.50335000" lon="34.65349000">
        <ele>102.00000</ele>
        <time>2010-01-01T00:08:25Z</time>
      </trkpt>
      <trkpt lat="31.50342000" lon="34.65356000">
        <ele>102.00000</ele>
        <time>2010-01-01T00:08:29Z</time>
      </trkpt>
      <trkpt lat="31.50368000" lon="34.65358000">
        <ele>102.00000</ele>
        <time>2010-01-01T00:08:39Z</time>
      </trkpt>
      <trkpt lat="31.50374000" lon="34.65361000">
        <ele>102.00000</ele>
        <time>2010-01-01T00:08:42Z</time>
      </trkpt>
      <trkpt lat="31.50375000" lon="34.65368000">
        <ele>101.00000</ele>
        <time>2010-01-01T00:08:44Z</time>
      </trkpt>
      <trkpt lat="31.50375000" lon="34.65390000">
        <ele>101.00000</ele>
        <time>2010-01-01T00:08:52Z</time>
      </trkpt>
      <trkpt lat="31.50380000" lon="34.65414000">
        <ele>101.00000</ele>
        <time>2010-01-01T00:09:00Z</time>
      </trkpt>
      <trkpt lat="31.50376000" lon="34.65479000">
        <ele>102.00000</ele>
        <time>2010-01-01T00:09:22Z</time>
      </trkpt>
      <trkpt lat="31.50382000" lon="34.65500000">
        <ele>102.00000</ele>
        <time>2010-01-01T00:09:30Z</time>
      </trkpt>
      <trkpt lat="31.50395000" lon="34.65521000">
        <ele>102.00000</ele>
        <time>2010-01-01T00:09:39Z</time>
      </trkpt>
      <trkpt lat="31.50405000" lon="34.65604000">
        <ele>104.00000</ele>
        <time>2010-01-01T00:10:07Z</time>
      </trkpt>
      <trkpt lat="31.50418000" lon="34.65653000">
        <ele>106.00000</ele>
        <time>2010-01-01T00:10:25Z</time>
      </trkpt>
      <trkpt lat="31.50408000" lon="34.65696000">
        <ele>107.00000</ele>
        <time>2010-01-01T00:10:40Z</time>
      </trkpt>
      <trkpt lat="31.50383000" lon="34.65707000">
        <ele>106.00000</ele>
        <time>2010-01-01T00:10:51Z</time>
      </trkpt>
      <trkpt lat="31.50381000" lon="34.65708000">
        <ele>106.00000</ele>
        <time>2010-01-01T00:10:52Z</time>
      </trkpt>
      <trkpt lat="31.50362000" lon="34.65739000">
        <ele>106.00000</ele>
        <time>2010-01-01T00:11:05Z</time>
      </trkpt>
      <trkpt lat="31.50347000" lon="34.65809000">
        <ele>103.00000</ele>
        <time>2010-01-01T00:11:29Z</time>
      </trkpt>
      <trkpt lat="31.50349000" lon="34.65838000">
        <ele>103.00000</ele>
        <time>2010-01-01T00:11:39Z</time>
      </trkpt>
      <trkpt lat="31.50354000" lon="34.65863000">
        <ele>104.00000</ele>
        <time>2010-01-01T00:11:48Z</time>
      </trkpt>
      <trkpt lat="31.50357000" lon="34.65892000">
        <ele>104.00000</ele>
        <time>2010-01-01T00:11:58Z</time>
      </trkpt>
      <trkpt lat="31.50369000" lon="34.65949000">
        <ele>106.00000</ele>
        <time>2010-01-01T00:12:18Z</time>
      </trkpt>
      <trkpt lat="31.50368000" lon="34.66001000">
        <ele>106.00000</ele>
        <time>2010-01-01T00:12:36Z</time>
      </trkpt>
      <trkpt lat="31.50370000" lon="34.66062000">
        <ele>105.00000</ele>
        <time>2010-01-01T00:12:57Z</time>
      </trkpt>
      <trkpt lat="31.50392000" lon="34.66143000">
        <ele>108.00000</ele>
        <time>2010-01-01T00:13:26Z</time>
      </trkpt>
      <trkpt lat="31.50402000" lon="34.66180000">
        <ele>107.00000</ele>
        <time>2010-01-01T00:13:39Z</time>
      </trkpt>
      <trkpt lat="31.50346000" lon="34.66282000">
        <ele>108.00000</ele>
        <time>2010-01-01T00:14:20Z</time>
      </trkpt>
      <trkpt lat="31.50329000" lon="34.66296000">
        <ele>109.00000</ele>
        <time>2010-01-01T00:14:29Z</time>
      </trkpt>
      <trkpt lat="31.50313000" lon="34.66343000">
        <ele>110.00000</ele>
        <time>2010-01-01T00:14:46Z</time>
      </trkpt>
      <trkpt lat="31.50292000" lon="34.66372000">
        <ele>110.00000</ele>
        <time>2010-01-01T00:14:59Z</time>
      </trkpt>
      <trkpt lat="31.50267000" lon="34.66385000">
        <ele>110.00000</ele>
        <time>2010-01-01T00:15:10Z</time>
      </trkpt>
      <trkpt lat="31.50244000" lon="34.66378000">
        <ele>110.00000</ele>
        <time>2010-01-01T00:15:19Z</time>
      </trkpt>
      <trkpt lat="31.50188000" lon="34.66368000">
        <ele>109.00000</ele>
        <time>2010-01-01T00:15:42Z</time>
      </trkpt>
      <trkpt lat="31.50157000" lon="34.66376000">
        <ele>109.00000</ele>
        <time>2010-01-01T00:15:55Z</time>
      </trkpt>
      <trkpt lat="31.50156000" lon="34.66379000">
        <ele>109.00000</ele>
        <time>2010-01-01T00:15:56Z</time>
      </trkpt>
      <trkpt lat="31.50136000" lon="34.66431000">
        <ele>111.00000</ele>
        <time>2010-01-01T00:16:15Z</time>
      </trkpt>
      <trkpt lat="31.50112000" lon="34.66473000">
        <ele>112.00000</ele>
        <time>2010-01-01T00:16:33Z</time>
      </trkpt>
      <trkpt lat="31.50078000" lon="34.66494000">
        <ele>113.00000</ele>
        <time>2010-01-01T00:16:48Z</time>
      </trkpt>
      <trkpt lat="31.50037000" lon="34.66510000">
        <ele>114.00000</ele>
        <time>2010-01-01T00:17:05Z</time>
      </trkpt>
      <trkpt lat="31.50001000" lon="34.66527000">
        <ele>114.00000</ele>
        <time>2010-01-01T00:17:21Z</time>
      </trkpt>
      <trkpt lat="31.49957000" lon="34.66564000">
        <ele>112.00000</ele>
        <time>2010-01-01T00:17:42Z</time>
      </trkpt>
      <trkpt lat="31.49919000" lon="34.66599000">
        <ele>114.00000</ele>
        <time>2010-01-01T00:18:02Z</time>
      </trkpt>
      <trkpt lat="31.49901000" lon="34.66628000">
        <ele>114.00000</ele>
        <time>2010-01-01T00:18:14Z</time>
      </trkpt>
      <trkpt lat="31.49893000" lon="34.66656000">
        <ele>114.00000</ele>
        <time>2010-01-01T00:18:24Z</time>
      </trkpt>
      <trkpt lat="31.49873000" lon="34.66683000">
        <ele>115.00000</ele>
        <time>2010-01-01T00:18:36Z</time>
      </trkpt>
      <trkpt lat="31.49850000" lon="34.66737000">
        <ele>116.00000</ele>
        <time>2010-01-01T00:18:57Z</time>
      </trkpt>
      <trkpt lat="31.49804000" lon="34.66795000">
        <ele>116.00000</ele>
        <time>2010-01-01T00:19:24Z</time>
      </trkpt>
      <trkpt lat="31.49769000" lon="34.66867000">
        <ele>116.00000</ele>
        <time>2010-01-01T00:19:52Z</time>
      </trkpt>
      <trkpt lat="31.49740000" lon="34.66917000">
        <ele>115.00000</ele>
        <time>2010-01-01T00:20:13Z</time>
      </trkpt>
      <trkpt lat="31.49707000" lon="34.66965000">
        <ele>116.00000</ele>
        <time>2010-01-01T00:20:34Z</time>
      </trkpt>
      <trkpt lat="31.49685000" lon="34.66973000">
        <ele>115.00000</ele>
        <time>2010-01-01T00:20:43Z</time>
      </trkpt>
      <trkpt lat="31.49660000" lon="34.66973000">
        <ele>114.00000</ele>
        <time>2010-01-01T00:20:53Z</time>
      </trkpt>
      <trkpt lat="31.49637000" lon="34.66967000">
        <ele>114.00000</ele>
        <time>2010-01-01T00:21:03Z</time>
      </trkpt>
      <trkpt lat="31.49608000" lon="34.66964000">
        <ele>115.00000</ele>
        <time>2010-01-01T00:21:14Z</time>
      </trkpt>
      <trkpt lat="31.49583000" lon="34.66978000">
        <ele>118.00000</ele>
        <time>2010-01-01T00:21:25Z</time>
      </trkpt>
      <trkpt lat="31.49560000" lon="34.67001000">
        <ele>118.00000</ele>
        <time>2010-01-01T00:21:37Z</time>
      </trkpt>
      <trkpt lat="31.49534000" lon="34.67021000">
        <ele>118.00000</ele>
        <time>2010-01-01T00:21:50Z</time>
      </trkpt>
      <trkpt lat="31.49523000" lon="34.67053000">
        <ele>118.00000</ele>
        <time>2010-01-01T00:22:02Z</time>
      </trkpt>
      <trkpt lat="31.49512000" lon="34.67069000">
        <ele>121.00000</ele>
        <time>2010-01-01T00:22:09Z</time>
      </trkpt>
      <trkpt lat="31.49488000" lon="34.67098000">
        <ele>122.00000</ele>
        <time>2010-01-01T00:22:22Z</time>
      </trkpt>
      <trkpt lat="31.49483000" lon="34.67138000">
        <ele>120.00000</ele>
        <time>2010-01-01T00:22:36Z</time>
      </trkpt>
      <trkpt lat="31.49463000" lon="34.67219000">
        <ele>120.00000</ele>
        <time>2010-01-01T00:23:05Z</time>
      </trkpt>
      <trkpt lat="31.49469000" lon="34.67266000">
        <ele>117.00000</ele>
        <time>2010-01-01T00:23:21Z</time>
      </trkpt>
      <trkpt lat="31.49465000" lon="34.67290000">
        <ele>117.00000</ele>
        <time>2010-01-01T00:23:30Z</time>
      </trkpt>
      <trkpt lat="31.49458000" lon="34.67315000">
        <ele>118.00000</ele>
        <time>2010-01-01T00:23:39Z</time>
      </trkpt>
      <trkpt lat="31.49459000" lon="34.67341000">
        <ele>120.00000</ele>
        <time>2010-01-01T00:23:47Z</time>
      </trkpt>
      <trkpt lat="31.49450000" lon="34.67383000">
        <ele>125.00000</ele>
        <time>2010-01-01T00:24:02Z</time>
      </trkpt>
      <trkpt lat="31.49445000" lon="34.67401000">
        <ele>127.00000</ele>
        <time>2010-01-01T00:24:09Z</time>
      </trkpt>
      <trkpt lat="31.49447000" lon="34.67417000">
        <ele>128.00000</ele>
        <time>2010-01-01T00:24:14Z</time>
      </trkpt>
      <trkpt lat="31.49443000" lon="34.67446000">
        <ele>128.00000</ele>
        <time>2010-01-01T00:24:24Z</time>
      </trkpt>
      <trkpt lat="31.49420000" lon="34.67530000">
        <ele>127.00000</ele>
        <time>2010-01-01T00:24:54Z</time>
      </trkpt>
      <trkpt lat="31.49391000" lon="34.67530000">
        <ele>123.00000</ele>
        <time>2010-01-01T00:25:06Z</time>
      </trkpt>
      <trkpt lat="31.49375000" lon="34.67557000">
        <ele>122.00000</ele>
        <time>2010-01-01T00:25:17Z</time>
      </trkpt>
      <trkpt lat="31.49348000" lon="34.67625000">
        <ele>123.00000</ele>
        <time>2010-01-01T00:25:43Z</time>
      </trkpt>
      <trkpt lat="31.49345000" lon="34.67653000">
        <ele>124.00000</ele>
        <time>2010-01-01T00:25:52Z</time>
      </trkpt>
      <trkpt lat="31.49342000" lon="34.67674000">
        <ele>125.00000</ele>
        <time>2010-01-01T00:26:00Z</time>
      </trkpt>
      <trkpt lat="31.49335000" lon="34.67685000">
        <ele>125.00000</ele>
        <time>2010-01-01T00:26:04Z</time>
      </trkpt>
      <trkpt lat="31.49325000" lon="34.67705000">
        <ele>124.00000</ele>
        <time>2010-01-01T00:26:12Z</time>
      </trkpt>
      <trkpt lat="31.49315000" lon="34.67738000">
        <ele>125.00000</ele>
        <time>2010-01-01T00:26:24Z</time>
      </trkpt>
      <trkpt lat="31.49314000" lon="34.67762000">
        <ele>127.00000</ele>
        <time>2010-01-01T00:26:32Z</time>
      </trkpt>
      <trkpt lat="31.49323000" lon="34.67785000">
        <ele>129.00000</ele>
        <time>2010-01-01T00:26:41Z</time>
      </trkpt>
      <trkpt lat="31.49322000" lon="34.67800000">
        <ele>129.00000</ele>
        <time>2010-01-01T00:26:46Z</time>
      </trkpt>
      <trkpt lat="31.49317000" lon="34.67812000">
        <ele>129.00000</ele>
        <time>2010-01-01T00:26:51Z</time>
      </trkpt>
      <trkpt lat="31.49315000" lon="34.67832000">
        <ele>130.00000</ele>
        <time>2010-01-01T00:26:58Z</time>
      </trkpt>
      <trkpt lat="31.49317000" lon="34.67862000">
        <ele>129.00000</ele>
        <time>2010-01-01T00:27:08Z</time>
      </trkpt>
      <trkpt lat="31.49322000" lon="34.67894000">
        <ele>128.00000</ele>
        <time>2010-01-01T00:27:19Z</time>
      </trkpt>
      <trkpt lat="31.49330000" lon="34.67913000">
        <ele>129.00000</ele>
        <time>2010-01-01T00:27:26Z</time>
      </trkpt>
      <trkpt lat="31.49366000" lon="34.67961000">
        <ele>132.00000</ele>
        <time>2010-01-01T00:27:48Z</time>
      </trkpt>
      <trkpt lat="31.49370000" lon="34.67979000">
        <ele>133.00000</ele>
        <time>2010-01-01T00:27:54Z</time>
      </trkpt>
      <trkpt lat="31.49368000" lon="34.67987000">
        <ele>134.00000</ele>
        <time>2010-01-01T00:27:57Z</time>
      </trkpt>
      <trkpt lat="31.49347000" lon="34.67988000">
        <ele>136.00000</ele>
        <time>2010-01-01T00:28:06Z</time>
      </trkpt>
      <trkpt lat="31.49331000" lon="34.67978000">
        <ele>135.00000</ele>
        <time>2010-01-01T00:28:13Z</time>
      </trkpt>
      <trkpt lat="31.49307000" lon="34.67978000">
        <ele>134.00000</ele>
        <time>2010-01-01T00:28:23Z</time>
      </trkpt>
      <trkpt lat="31.49288000" lon="34.67982000">
        <ele>134.00000</ele>
        <time>2010-01-01T00:28:30Z</time>
      </trkpt>
      <trkpt lat="31.49278000" lon="34.67991000">
        <ele>135.00000</ele>
        <time>2010-01-01T00:28:35Z</time>
      </trkpt>
      <trkpt lat="31.49269000" lon="34.68009000">
        <ele>136.00000</ele>
        <time>2010-01-01T00:28:42Z</time>
      </trkpt>
      <trkpt lat="31.49255000" lon="34.68028000">
        <ele>135.00000</ele>
        <time>2010-01-01T00:28:51Z</time>
      </trkpt>
      <trkpt lat="31.49242000" lon="34.68063000">
        <ele>136.00000</ele>
        <time>2010-01-01T00:29:04Z</time>
      </trkpt>
      <trkpt lat="31.49230000" lon="34.68074000">
        <ele>136.00000</ele>
        <time>2010-01-01T00:29:10Z</time>
      </trkpt>
      <trkpt lat="31.49224000" lon="34.68083000">
        <ele>137.00000</ele>
        <time>2010-01-01T00:29:14Z</time>
      </trkpt>
      <trkpt lat="31.49216000" lon="34.68092000">
        <ele>136.00000</ele>
        <time>2010-01-01T00:29:19Z</time>
      </trkpt>
      <trkpt lat="31.49208000" lon="34.68117000">
        <ele>136.00000</ele>
        <time>2010-01-01T00:29:28Z</time>
      </trkpt>
      <trkpt lat="31.49208000" lon="34.68128000">
        <ele>136.00000</ele>
        <time>2010-01-01T00:29:31Z</time>
      </trkpt>
      <trkpt lat="31.49222000" lon="34.68143000">
        <ele>136.00000</ele>
        <time>2010-01-01T00:29:39Z</time>
      </trkpt>
      <trkpt lat="31.49234000" lon="34.68150000">
        <ele>137.00000</ele>
        <time>2010-01-01T00:29:44Z</time>
      </trkpt>
      <trkpt lat="31.49233000" lon="34.68150000">
        <ele>137.00000</ele>
        <time>2010-01-01T00:29:45Z</time>
      </trkpt>
      <trkpt lat="31.49296000" lon="34.68227000">
        <ele>139.00000</ele>
        <time>2010-01-01T00:30:21Z</time>
      </trkpt>
      <trkpt lat="31.49307000" lon="34.68239000">
        <ele>140.00000</ele>
        <time>2010-01-01T00:30:27Z</time>
      </trkpt>
      <trkpt lat="31.49313000" lon="34.68252000">
        <ele>140.00000</ele>
        <time>2010-01-01T00:30:32Z</time>
      </trkpt>
      <trkpt lat="31.49338000" lon="34.68268000">
        <ele>143.00000</ele>
        <time>2010-01-01T00:30:44Z</time>
      </trkpt>
      <trkpt lat="31.49348000" lon="34.68281000">
        <ele>144.00000</ele>
        <time>2010-01-01T00:30:50Z</time>
      </trkpt>
      <trkpt lat="31.49353000" lon="34.68301000">
        <ele>145.00000</ele>
        <time>2010-01-01T00:30:57Z</time>
      </trkpt>
      <trkpt lat="31.49349000" lon="34.68312000">
        <ele>145.00000</ele>
        <time>2010-01-01T00:31:01Z</time>
      </trkpt>
      <trkpt lat="31.49339000" lon="34.68318000">
        <ele>145.00000</ele>
        <time>2010-01-01T00:31:05Z</time>
      </trkpt>
      <trkpt lat="31.49321000" lon="34.68320000">
        <ele>144.00000</ele>
        <time>2010-01-01T00:31:13Z</time>
      </trkpt>
      <trkpt lat="31.49302000" lon="34.68319000">
        <ele>144.00000</ele>
        <time>2010-01-01T00:31:20Z</time>
      </trkpt>
      <trkpt lat="31.49287000" lon="34.68316000">
        <ele>144.00000</ele>
        <time>2010-01-01T00:31:26Z</time>
      </trkpt>
      <trkpt lat="31.49275000" lon="34.68299000">
        <ele>143.00000</ele>
        <time>2010-01-01T00:31:34Z</time>
      </trkpt>
      <trkpt lat="31.49271000" lon="34.68298000">
        <ele>143.00000</ele>
        <time>2010-01-01T00:31:35Z</time>
      </trkpt>
      <trkpt lat="31.49268000" lon="34.68303000">
        <ele>144.00000</ele>
        <time>2010-01-01T00:31:37Z</time>
      </trkpt>
      <trkpt lat="31.49267000" lon="34.68310000">
        <ele>144.00000</ele>
        <time>2010-01-01T00:31:40Z</time>
      </trkpt>
      <trkpt lat="31.49269000" lon="34.68323000">
        <ele>145.00000</ele>
        <time>2010-01-01T00:31:44Z</time>
      </trkpt>
      <trkpt lat="31.49263000" lon="34.68339000">
        <ele>146.00000</ele>
        <time>2010-01-01T00:31:50Z</time>
      </trkpt>
      <trkpt lat="31.49251000" lon="34.68341000">
        <ele>146.00000</ele>
        <time>2010-01-01T00:31:55Z</time>
      </trkpt>
      <trkpt lat="31.49244000" lon="34.68338000">
        <ele>145.00000</ele>
        <time>2010-01-01T00:31:58Z</time>
      </trkpt>
      <trkpt lat="31.49236000" lon="34.68327000">
        <ele>145.00000</ele>
        <time>2010-01-01T00:32:03Z</time>
      </trkpt>
      <trkpt lat="31.49227000" lon="34.68319000">
        <ele>145.00000</ele>
        <time>2010-01-01T00:32:08Z</time>
      </trkpt>
      <trkpt lat="31.49208000" lon="34.68315000">
        <ele>144.00000</ele>
        <time>2010-01-01T00:32:15Z</time>
      </trkpt>
      <trkpt lat="31.49196000" lon="34.68324000">
        <ele>143.00000</ele>
        <time>2010-01-01T00:32:21Z</time>
      </trkpt>
      <trkpt lat="31.49192000" lon="34.68335000">
        <ele>142.00000</ele>
        <time>2010-01-01T00:32:25Z</time>
      </trkpt>
      <trkpt lat="31.49193000" lon="34.68347000">
        <ele>142.00000</ele>
        <time>2010-01-01T00:32:29Z</time>
      </trkpt>
      <trkpt lat="31.49198000" lon="34.68360000">
        <ele>142.00000</ele>
        <time>2010-01-01T00:32:34Z</time>
      </trkpt>
      <trkpt lat="31.49206000" lon="34.68373000">
        <ele>142.00000</ele>
        <time>2010-01-01T00:32:40Z</time>
      </trkpt>
      <trkpt lat="31.49229000" lon="34.68383000">
        <ele>144.00000</ele>
        <time>2010-01-01T00:32:49Z</time>
      </trkpt>
      <trkpt lat="31.49240000" lon="34.68391000">
        <ele>145.00000</ele>
        <time>2010-01-01T00:32:55Z</time>
      </trkpt>
      <trkpt lat="31.49247000" lon="34.68402000">
        <ele>146.00000</ele>
        <time>2010-01-01T00:32:59Z</time>
      </trkpt>
      <trkpt lat="31.49250000" lon="34.68420000">
        <ele>145.00000</ele>
        <time>2010-01-01T00:33:06Z</time>
      </trkpt>
      <trkpt lat="31.49255000" lon="34.68429000">
        <ele>145.00000</ele>
        <time>2010-01-01T00:33:09Z</time>
      </trkpt>
      <trkpt lat="31.49262000" lon="34.68435000">
        <ele>144.00000</ele>
        <time>2010-01-01T00:33:13Z</time>
      </trkpt>
      <trkpt lat="31.49291000" lon="34.68446000">
        <ele>144.00000</ele>
        <time>2010-01-01T00:33:25Z</time>
      </trkpt>
      <trkpt lat="31.49317000" lon="34.68479000">
        <ele>143.00000</ele>
        <time>2010-01-01T00:33:40Z</time>
      </trkpt>
      <trkpt lat="31.49334000" lon="34.68505000">
        <ele>143.00000</ele>
        <time>2010-01-01T00:33:51Z</time>
      </trkpt>
      <trkpt lat="31.49333000" lon="34.68508000">
        <ele>143.00000</ele>
        <time>2010-01-01T00:33:53Z</time>
      </trkpt>
      <trkpt lat="31.49327000" lon="34.68525000">
        <ele>143.00000</ele>
        <time>2010-01-01T00:33:59Z</time>
      </trkpt>
      <trkpt lat="31.49296000" lon="34.68544000">
        <ele>144.00000</ele>
        <time>2010-01-01T00:34:13Z</time>
      </trkpt>
      <trkpt lat="31.49250000" lon="34.68546000">
        <ele>148.00000</ele>
        <time>2010-01-01T00:34:31Z</time>
      </trkpt>
      <trkpt lat="31.49211000" lon="34.68530000">
        <ele>143.00000</ele>
        <time>2010-01-01T00:34:48Z</time>
      </trkpt>
      <trkpt lat="31.49202000" lon="34.68530000">
        <ele>142.00000</ele>
        <time>2010-01-01T00:34:51Z</time>
      </trkpt>
      <trkpt lat="31.49199000" lon="34.68536000">
        <ele>142.00000</ele>
        <time>2010-01-01T00:34:54Z</time>
      </trkpt>
      <trkpt lat="31.49199000" lon="34.68552000">
        <ele>142.00000</ele>
        <time>2010-01-01T00:34:59Z</time>
      </trkpt>
      <trkpt lat="31.49203000" lon="34.68576000">
        <ele>143.00000</ele>
        <time>2010-01-01T00:35:08Z</time>
      </trkpt>
      <trkpt lat="31.49202000" lon="34.68591000">
        <ele>143.00000</ele>
        <time>2010-01-01T00:35:13Z</time>
      </trkpt>
      <trkpt lat="31.49203000" lon="34.68627000">
        <ele>146.00000</ele>
        <time>2010-01-01T00:35:25Z</time>
      </trkpt>
      <trkpt lat="31.49197000" lon="34.68638000">
        <ele>146.00000</ele>
        <time>2010-01-01T00:35:29Z</time>
      </trkpt>
      <trkpt lat="31.49198000" lon="34.68687000">
        <ele>146.00000</ele>
        <time>2010-01-01T00:35:46Z</time>
      </trkpt>
      <trkpt lat="31.49212000" lon="34.68717000">
        <ele>143.00000</ele>
        <time>2010-01-01T00:35:58Z</time>
      </trkpt>
      <trkpt lat="31.49265000" lon="34.68800000">
        <ele>145.00000</ele>
        <time>2010-01-01T00:36:33Z</time>
      </trkpt>
      <trkpt lat="31.49284000" lon="34.68819000">
        <ele>147.00000</ele>
        <time>2010-01-01T00:36:43Z</time>
      </trkpt>
      <trkpt lat="31.49331000" lon="34.68819000">
        <ele>148.00000</ele>
        <time>2010-01-01T00:37:02Z</time>
      </trkpt>
      <trkpt lat="31.49362000" lon="34.68853000">
        <ele>150.00000</ele>
        <time>2010-01-01T00:37:19Z</time>
      </trkpt>
      <trkpt lat="31.49374000" lon="34.68875000">
        <ele>152.00000</ele>
        <time>2010-01-01T00:37:28Z</time>
      </trkpt>
      <trkpt lat="31.49368000" lon="34.68920000">
        <ele>154.00000</ele>
        <time>2010-01-01T00:37:44Z</time>
      </trkpt>
      <trkpt lat="31.49372000" lon="34.68967000">
        <ele>155.00000</ele>
        <time>2010-01-01T00:38:00Z</time>
      </trkpt>
      <trkpt lat="31.49385000" lon="34.69012000">
        <ele>154.00000</ele>
        <time>2010-01-01T00:38:16Z</time>
      </trkpt>
      <trkpt lat="31.49390000" lon="34.69047000">
        <ele>153.00000</ele>
        <time>2010-01-01T00:38:28Z</time>
      </trkpt>
      <trkpt lat="31.49373000" lon="34.69120000">
        <ele>156.00000</ele>
        <time>2010-01-01T00:38:54Z</time>
      </trkpt>
      <trkpt lat="31.49376000" lon="34.69152000">
        <ele>158.00000</ele>
        <time>2010-01-01T00:39:05Z</time>
      </trkpt>
      <trkpt lat="31.49394610" lon="34.69164310">
        <ele>158.00000</ele>
        <time>2010-01-01T00:39:13Z</time>
      </trkpt>
      <trkpt lat="31.49410170" lon="34.69168600">
        <ele>159.00000</ele>
        <time>2010-01-01T00:39:20Z</time>
      </trkpt>
      <trkpt lat="31.49421000" lon="34.69138000">
        <ele>157.00000</ele>
        <time>2010-01-01T00:39:31Z</time>
      </trkpt>
      <trkpt lat="31.49435000" lon="34.69143000">
        <ele>158.00000</ele>
        <time>2010-01-01T00:39:37Z</time>
      </trkpt>
      <trkpt lat="31.49443000" lon="34.69146000">
        <ele>158.00000</ele>
        <time>2010-01-01T00:39:40Z</time>
      </trkpt>
      <trkpt lat="31.49442000" lon="34.69147000">
        <ele>158.00000</ele>
        <time>2010-01-01T00:39:41Z</time>
      </trkpt>
      <trkpt lat="31.49442000" lon="34.69179000">
        <ele>159.00000</ele>
        <time>2010-01-01T00:39:52Z</time>
      </trkpt>
      <trkpt lat="31.49449000" lon="34.69212000">
        <ele>160.00000</ele>
        <time>2010-01-01T00:40:03Z</time>
      </trkpt>
      <trkpt lat="31.49464000" lon="34.69255000">
        <ele>160.00000</ele>
        <time>2010-01-01T00:40:19Z</time>
      </trkpt>
      <trkpt lat="31.49543000" lon="34.69508000">
        <ele>154.00000</ele>
        <time>2010-01-01T00:41:51Z</time>
      </trkpt>
      <trkpt lat="31.49548000" lon="34.69538000">
        <ele>153.00000</ele>
        <time>2010-01-01T00:42:02Z</time>
      </trkpt>
      <trkpt lat="31.49558000" lon="34.69541000">
        <ele>153.00000</ele>
        <time>2010-01-01T00:42:06Z</time>
      </trkpt>
      <trkpt lat="31.49559000" lon="34.69534000">
        <ele>153.00000</ele>
        <time>2010-01-01T00:42:08Z</time>
      </trkpt>
      <trkpt lat="31.49551000" lon="34.69482000">
        <ele>156.00000</ele>
        <time>2010-01-01T00:42:26Z</time>
      </trkpt>
      <trkpt lat="31.49548000" lon="34.69455000">
        <ele>157.00000</ele>
        <time>2010-01-01T00:42:35Z</time>
      </trkpt>
      <trkpt lat="31.49533000" lon="34.69431000">
        <ele>158.00000</ele>
        <time>2010-01-01T00:42:46Z</time>
      </trkpt>
      <trkpt lat="31.49530000" lon="34.69409000">
        <ele>158.00000</ele>
        <time>2010-01-01T00:42:53Z</time>
      </trkpt>
      <trkpt lat="31.49532000" lon="34.69408000">
        <ele>158.00000</ele>
        <time>2010-01-01T00:42:54Z</time>
      </trkpt>
      <trkpt lat="31.49552000" lon="34.69395000">
        <ele>157.00000</ele>
        <time>2010-01-01T00:43:03Z</time>
      </trkpt>
      <trkpt lat="31.49580000" lon="34.69405000">
        <ele>157.00000</ele>
        <time>2010-01-01T00:43:15Z</time>
      </trkpt>
      <trkpt lat="31.49599000" lon="34.69422000">
        <ele>156.00000</ele>
        <time>2010-01-01T00:43:25Z</time>
      </trkpt>
      <trkpt lat="31.49606000" lon="34.69447000">
        <ele>153.00000</ele>
        <time>2010-01-01T00:43:34Z</time>
      </trkpt>
      <trkpt lat="31.49611000" lon="34.69450000">
        <ele>152.00000</ele>
        <time>2010-01-01T00:43:36Z</time>
      </trkpt>
      <trkpt lat="31.49616000" lon="34.69441000">
        <ele>153.00000</ele>
        <time>2010-01-01T00:43:39Z</time>
      </trkpt>
      <trkpt lat="31.49619000" lon="34.69417000">
        <ele>155.00000</ele>
        <time>2010-01-01T00:43:48Z</time>
      </trkpt>
      <trkpt lat="31.49617000" lon="34.69406000">
        <ele>155.00000</ele>
        <time>2010-01-01T00:43:52Z</time>
      </trkpt>
      <trkpt lat="31.49596000" lon="34.69396000">
        <ele>157.00000</ele>
        <time>2010-01-01T00:44:01Z</time>
      </trkpt>
      <trkpt lat="31.49597000" lon="34.69390000">
        <ele>157.00000</ele>
        <time>2010-01-01T00:44:03Z</time>
      </trkpt>
      <trkpt lat="31.49601000" lon="34.69388000">
        <ele>156.00000</ele>
        <time>2010-01-01T00:44:04Z</time>
      </trkpt>
      <trkpt lat="31.49654000" lon="34.69410000">
        <ele>149.00000</ele>
        <time>2010-01-01T00:44:27Z</time>
      </trkpt>
      <trkpt lat="31.49666000" lon="34.69429000">
        <ele>148.00000</ele>
        <time>2010-01-01T00:44:35Z</time>
      </trkpt>
      <trkpt lat="31.49674000" lon="34.69463000">
        <ele>147.00000</ele>
        <time>2010-01-01T00:44:47Z</time>
      </trkpt>
      <trkpt lat="31.49660000" lon="34.69494000">
        <ele>148.00000</ele>
        <time>2010-01-01T00:44:59Z</time>
      </trkpt>
      <trkpt lat="31.49650000" lon="34.69511000">
        <ele>147.00000</ele>
        <time>2010-01-01T00:45:06Z</time>
      </trkpt>
      <trkpt lat="31.49645000" lon="34.69534000">
        <ele>147.00000</ele>
        <time>2010-01-01T00:45:14Z</time>
      </trkpt>
      <trkpt lat="31.49630000" lon="34.69558000">
        <ele>148.00000</ele>
        <time>2010-01-01T00:45:24Z</time>
      </trkpt>
      <trkpt lat="31.49630000" lon="34.69561000">
        <ele>148.00000</ele>
        <time>2010-01-01T00:45:25Z</time>
      </trkpt>
      <trkpt lat="31.49630000" lon="34.69581000">
        <ele>148.00000</ele>
        <time>2010-01-01T00:45:32Z</time>
      </trkpt>
      <trkpt lat="31.49642000" lon="34.69595000">
        <ele>147.00000</ele>
        <time>2010-01-01T00:45:39Z</time>
      </trkpt>
      <trkpt lat="31.49658000" lon="34.69618000">
        <ele>146.00000</ele>
        <time>2010-01-01T00:45:49Z</time>
      </trkpt>
      <trkpt lat="31.49676000" lon="34.69620000">
        <ele>145.00000</ele>
        <time>2010-01-01T00:45:56Z</time>
      </trkpt>
      <trkpt lat="31.49693000" lon="34.69615000">
        <ele>145.00000</ele>
        <time>2010-01-01T00:46:03Z</time>
      </trkpt>
      <trkpt lat="31.49719000" lon="34.69602000">
        <ele>145.00000</ele>
        <time>2010-01-01T00:46:15Z</time>
      </trkpt>
      <trkpt lat="31.49735000" lon="34.69604000">
        <ele>147.00000</ele>
        <time>2010-01-01T00:46:21Z</time>
      </trkpt>
      <trkpt lat="31.49740000" lon="34.69620000">
        <ele>148.00000</ele>
        <time>2010-01-01T00:46:27Z</time>
      </trkpt>
      <trkpt lat="31.49757000" lon="34.69629000">
        <ele>150.00000</ele>
        <time>2010-01-01T00:46:34Z</time>
      </trkpt>
      <trkpt lat="31.49772000" lon="34.69644000">
        <ele>150.00000</ele>
        <time>2010-01-01T00:46:42Z</time>
      </trkpt>
      <trkpt lat="31.49791000" lon="34.69642000">
        <ele>151.00000</ele>
        <time>2010-01-01T00:46:50Z</time>
      </trkpt>
      <trkpt lat="31.49806000" lon="34.69651000">
        <ele>152.00000</ele>
        <time>2010-01-01T00:46:57Z</time>
      </trkpt>
      <trkpt lat="31.49800000" lon="34.69667000">
        <ele>152.00000</ele>
        <time>2010-01-01T00:47:03Z</time>
      </trkpt>
      <trkpt lat="31.49795000" lon="34.69683000">
        <ele>152.00000</ele>
        <time>2010-01-01T00:47:08Z</time>
      </trkpt>
      <trkpt lat="31.49796000" lon="34.69683000">
        <ele>152.00000</ele>
        <time>2010-01-01T00:47:09Z</time>
      </trkpt>
      <trkpt lat="31.49798000" lon="34.69710000">
        <ele>153.00000</ele>
        <time>2010-01-01T00:47:18Z</time>
      </trkpt>
      <trkpt lat="31.49814000" lon="34.69749000">
        <ele>154.00000</ele>
        <time>2010-01-01T00:47:33Z</time>
      </trkpt>
      <trkpt lat="31.49854000" lon="34.69781000">
        <ele>157.00000</ele>
        <time>2010-01-01T00:47:52Z</time>
      </trkpt>
      <trkpt lat="31.49880000" lon="34.69805000">
        <ele>157.00000</ele>
        <time>2010-01-01T00:48:06Z</time>
      </trkpt>
      <trkpt lat="31.49897000" lon="34.69814000">
        <ele>158.00000</ele>
        <time>2010-01-01T00:48:13Z</time>
      </trkpt>
      <trkpt lat="31.49912000" lon="34.69829000">
        <ele>159.00000</ele>
        <time>2010-01-01T00:48:21Z</time>
      </trkpt>
      <trkpt lat="31.49925000" lon="34.69835000">
        <ele>160.00000</ele>
        <time>2010-01-01T00:48:26Z</time>
      </trkpt>
      <trkpt lat="31.49940000" lon="34.69825000">
        <ele>162.00000</ele>
        <time>2010-01-01T00:48:33Z</time>
      </trkpt>
      <trkpt lat="31.49950000" lon="34.69830000">
        <ele>163.00000</ele>
        <time>2010-01-01T00:48:38Z</time>
      </trkpt>
      <trkpt lat="31.49949000" lon="34.69830000">
        <ele>163.00000</ele>
        <time>2010-01-01T00:48:38Z</time>
      </trkpt>
      <trkpt lat="31.49951000" lon="34.69831000">
        <ele>163.00000</ele>
        <time>2010-01-01T00:48:39Z</time>
      </trkpt>
      <trkpt lat="31.49947000" lon="34.69846000">
        <ele>163.00000</ele>
        <time>2010-01-01T00:48:44Z</time>
      </trkpt>
      <trkpt lat="31.49949000" lon="34.69859000">
        <ele>163.00000</ele>
        <time>2010-01-01T00:48:49Z</time>
      </trkpt>
      <trkpt lat="31.49942000" lon="34.69877000">
        <ele>163.00000</ele>
        <time>2010-01-01T00:48:56Z</time>
      </trkpt>
      <trkpt lat="31.49940000" lon="34.69897000">
        <ele>163.00000</ele>
        <time>2010-01-01T00:49:02Z</time>
      </trkpt>
      <trkpt lat="31.49934000" lon="34.69910000">
        <ele>164.00000</ele>
        <time>2010-01-01T00:49:08Z</time>
      </trkpt>
      <trkpt lat="31.49942000" lon="34.69911000">
        <ele>163.00000</ele>
        <time>2010-01-01T00:49:11Z</time>
      </trkpt>
      <trkpt lat="31.49941000" lon="34.69911000">
        <ele>164.00000</ele>
        <time>2010-01-01T00:49:11Z</time>
      </trkpt>
      <trkpt lat="31.49953000" lon="34.69911000">
        <ele>162.00000</ele>
        <time>2010-01-01T00:49:16Z</time>
      </trkpt>
      <trkpt lat="31.49952000" lon="34.69911000">
        <ele>163.00000</ele>
        <time>2010-01-01T00:49:16Z</time>
      </trkpt>
      <trkpt lat="31.49961000" lon="34.69925000">
        <ele>162.00000</ele>
        <time>2010-01-01T00:49:22Z</time>
      </trkpt>
      <trkpt lat="31.49966000" lon="34.69934000">
        <ele>162.00000</ele>
        <time>2010-01-01T00:49:26Z</time>
      </trkpt>
      <trkpt lat="31.49966000" lon="34.69940000">
        <ele>163.00000</ele>
        <time>2010-01-01T00:49:28Z</time>
      </trkpt>
      <trkpt lat="31.49981000" lon="34.69979000">
        <ele>164.00000</ele>
        <time>2010-01-01T00:49:43Z</time>
      </trkpt>
      <trkpt lat="31.49994000" lon="34.69996000">
        <ele>165.00000</ele>
        <time>2010-01-01T00:49:50Z</time>
      </trkpt>
      <trkpt lat="31.50014000" lon="34.70005000">
        <ele>165.00000</ele>
        <time>2010-01-01T00:49:59Z</time>
      </trkpt>
      <trkpt lat="31.50021000" lon="34.70014000">
        <ele>165.00000</ele>
        <time>2010-01-01T00:50:03Z</time>
      </trkpt>
      <trkpt lat="31.50025000" lon="34.70015000">
        <ele>165.00000</ele>
        <time>2010-01-01T00:50:05Z</time>
      </trkpt>
      <trkpt lat="31.50040000" lon="34.70009000">
        <ele>163.00000</ele>
        <time>2010-01-01T00:50:11Z</time>
      </trkpt>
      <trkpt lat="31.50045000" lon="34.70010000">
        <ele>162.00000</ele>
        <time>2010-01-01T00:50:13Z</time>
      </trkpt>
      <trkpt lat="31.50051000" lon="34.70014000">
        <ele>161.00000</ele>
        <time>2010-01-01T00:50:16Z</time>
      </trkpt>
      <trkpt lat="31.50057000" lon="34.70029000">
        <ele>161.00000</ele>
        <time>2010-01-01T00:50:22Z</time>
      </trkpt>
      <trkpt lat="31.50063000" lon="34.70055000">
        <ele>161.00000</ele>
        <time>2010-01-01T00:50:31Z</time>
      </trkpt>
      <trkpt lat="31.50064000" lon="34.70066000">
        <ele>161.00000</ele>
        <time>2010-01-01T00:50:35Z</time>
      </trkpt>
      <trkpt lat="31.50068000" lon="34.70084000">
        <ele>161.00000</ele>
        <time>2010-01-01T00:50:41Z</time>
      </trkpt>
      <trkpt lat="31.50062000" lon="34.70123000">
        <ele>160.00000</ele>
        <time>2010-01-01T00:50:54Z</time>
      </trkpt>
      <trkpt lat="31.50064000" lon="34.70127000">
        <ele>160.00000</ele>
        <time>2010-01-01T00:50:56Z</time>
      </trkpt>
      <trkpt lat="31.50072000" lon="34.70129000">
        <ele>159.00000</ele>
        <time>2010-01-01T00:50:59Z</time>
      </trkpt>
      <trkpt lat="31.50076000" lon="34.70125000">
        <ele>159.00000</ele>
        <time>2010-01-01T00:51:01Z</time>
      </trkpt>
      <trkpt lat="31.50087000" lon="34.70081000">
        <ele>157.00000</ele>
        <time>2010-01-01T00:51:17Z</time>
      </trkpt>
      <trkpt lat="31.50087000" lon="34.70057000">
        <ele>155.00000</ele>
        <time>2010-01-01T00:51:25Z</time>
      </trkpt>
      <trkpt lat="31.50089000" lon="34.70046000">
        <ele>154.00000</ele>
        <time>2010-01-01T00:51:29Z</time>
      </trkpt>
      <trkpt lat="31.50110000" lon="34.69986000">
        <ele>151.00000</ele>
        <time>2010-01-01T00:51:51Z</time>
      </trkpt>
      <trkpt lat="31.50114000" lon="34.69981000">
        <ele>150.00000</ele>
        <time>2010-01-01T00:51:54Z</time>
      </trkpt>
      <trkpt lat="31.50119000" lon="34.69981000">
        <ele>149.00000</ele>
        <time>2010-01-01T00:51:56Z</time>
      </trkpt>
      <trkpt lat="31.50127000" lon="34.69985000">
        <ele>148.00000</ele>
        <time>2010-01-01T00:51:59Z</time>
      </trkpt>
      <trkpt lat="31.50134000" lon="34.69979000">
        <ele>147.00000</ele>
        <time>2010-01-01T00:52:03Z</time>
      </trkpt>
      <trkpt lat="31.50141100" lon="34.69958780">
        <ele>146.00000</ele>
        <time>2010-01-01T00:52:10Z</time>
      </trkpt>
      <trkpt lat="31.50150000" lon="34.69935000">
        <ele>145.00000</ele>
        <time>2010-01-01T00:52:19Z</time>
      </trkpt>
      <trkpt lat="31.50169000" lon="34.69909000">
        <ele>143.00000</ele>
        <time>2010-01-01T00:52:31Z</time>
      </trkpt>
      <trkpt lat="31.50178000" lon="34.69886000">
        <ele>144.00000</ele>
        <time>2010-01-01T00:52:39Z</time>
      </trkpt>
      <trkpt lat="31.50185000" lon="34.69846000">
        <ele>145.00000</ele>
        <time>2010-01-01T00:52:53Z</time>
      </trkpt>
      <trkpt lat="31.50184000" lon="34.69825000">
        <ele>145.00000</ele>
        <time>2010-01-01T00:53:00Z</time>
      </trkpt>
      <trkpt lat="31.50178000" lon="34.69794000">
        <ele>145.00000</ele>
        <time>2010-01-01T00:53:11Z</time>
      </trkpt>
      <trkpt lat="31.50171000" lon="34.69768000">
        <ele>145.00000</ele>
        <time>2010-01-01T00:53:20Z</time>
      </trkpt>
      <trkpt lat="31.50160000" lon="34.69739000">
        <ele>146.00000</ele>
        <time>2010-01-01T00:53:31Z</time>
      </trkpt>
      <trkpt lat="31.50153000" lon="34.69705000">
        <ele>148.00000</ele>
        <time>2010-01-01T00:53:43Z</time>
      </trkpt>
      <trkpt lat="31.50144000" lon="34.69675000">
        <ele>147.00000</ele>
        <time>2010-01-01T00:53:54Z</time>
      </trkpt>
      <trkpt lat="31.50141000" lon="34.69648000">
        <ele>146.00000</ele>
        <time>2010-01-01T00:54:03Z</time>
      </trkpt>
      <trkpt lat="31.50145000" lon="34.69600000">
        <ele>142.00000</ele>
        <time>2010-01-01T00:54:20Z</time>
      </trkpt>
      <trkpt lat="31.50144000" lon="34.69586000">
        <ele>143.00000</ele>
        <time>2010-01-01T00:54:25Z</time>
      </trkpt>
      <trkpt lat="31.50144000" lon="34.69522000">
        <ele>141.00000</ele>
        <time>2010-01-01T00:54:46Z</time>
      </trkpt>
      <trkpt lat="31.50145000" lon="34.69516000">
        <ele>140.00000</ele>
        <time>2010-01-01T00:54:49Z</time>
      </trkpt>
      <trkpt lat="31.50146000" lon="34.69491000">
        <ele>140.00000</ele>
        <time>2010-01-01T00:54:57Z</time>
      </trkpt>
      <trkpt lat="31.50147000" lon="34.69485000">
        <ele>141.00000</ele>
        <time>2010-01-01T00:54:59Z</time>
      </trkpt>
      <trkpt lat="31.50147000" lon="34.69475000">
        <ele>141.00000</ele>
        <time>2010-01-01T00:55:03Z</time>
      </trkpt>
      <trkpt lat="31.50156000" lon="34.69434000">
        <ele>141.00000</ele>
        <time>2010-01-01T00:55:17Z</time>
      </trkpt>
      <trkpt lat="31.50158000" lon="34.69418000">
        <ele>140.00000</ele>
        <time>2010-01-01T00:55:23Z</time>
      </trkpt>
      <trkpt lat="31.50158000" lon="34.69399000">
        <ele>139.00000</ele>
        <time>2010-01-01T00:55:29Z</time>
      </trkpt>
      <trkpt lat="31.50155000" lon="34.69382000">
        <ele>139.00000</ele>
        <time>2010-01-01T00:55:35Z</time>
      </trkpt>
      <trkpt lat="31.50151000" lon="34.69345000">
        <ele>139.00000</ele>
        <time>2010-01-01T00:55:48Z</time>
      </trkpt>
      <trkpt lat="31.50153000" lon="34.69299000">
        <ele>136.00000</ele>
        <time>2010-01-01T00:56:03Z</time>
      </trkpt>
      <trkpt lat="31.50157000" lon="34.69268000">
        <ele>136.00000</ele>
        <time>2010-01-01T00:56:14Z</time>
      </trkpt>
      <trkpt lat="31.50162000" lon="34.69242000">
        <ele>136.00000</ele>
        <time>2010-01-01T00:56:23Z</time>
      </trkpt>
      <trkpt lat="31.50185000" lon="34.69185000">
        <ele>133.00000</ele>
        <time>2010-01-01T00:56:45Z</time>
      </trkpt>
      <trkpt lat="31.50189000" lon="34.69170000">
        <ele>132.00000</ele>
        <time>2010-01-01T00:56:50Z</time>
      </trkpt>
      <trkpt lat="31.50193000" lon="34.69148000">
        <ele>131.00000</ele>
        <time>2010-01-01T00:56:58Z</time>
      </trkpt>
      <trkpt lat="31.50195000" lon="34.69116000">
        <ele>129.00000</ele>
        <time>2010-01-01T00:57:09Z</time>
      </trkpt>
      <trkpt lat="31.50199000" lon="34.69094000">
        <ele>129.00000</ele>
        <time>2010-01-01T00:57:16Z</time>
      </trkpt>
      <trkpt lat="31.50206000" lon="34.69077000">
        <ele>129.00000</ele>
        <time>2010-01-01T00:57:23Z</time>
      </trkpt>
      <trkpt lat="31.50218000" lon="34.69061000">
        <ele>129.00000</ele>
        <time>2010-01-01T00:57:30Z</time>
      </trkpt>
      <trkpt lat="31.50241000" lon="34.69043000">
        <ele>134.00000</ele>
        <time>2010-01-01T00:57:41Z</time>
      </trkpt>
      <trkpt lat="31.50290000" lon="34.69027000">
        <ele>140.00000</ele>
        <time>2010-01-01T00:58:02Z</time>
      </trkpt>
      <trkpt lat="31.50305000" lon="34.69009000">
        <ele>141.00000</ele>
        <time>2010-01-01T00:58:10Z</time>
      </trkpt>
      <trkpt lat="31.50342000" lon="34.69030000">
        <ele>146.00000</ele>
        <time>2010-01-01T00:58:27Z</time>
      </trkpt>
      <trkpt lat="31.50379000" lon="34.69038000">
        <ele>149.00000</ele>
        <time>2010-01-01T00:58:42Z</time>
      </trkpt>
      <trkpt lat="31.50410000" lon="34.69048000">
        <ele>152.00000</ele>
        <time>2010-01-01T00:58:55Z</time>
      </trkpt>
      <trkpt lat="31.50432000" lon="34.69059000">
        <ele>154.00000</ele>
        <time>2010-01-01T00:59:04Z</time>
      </trkpt>
      <trkpt lat="31.50473000" lon="34.69084000">
        <ele>156.00000</ele>
        <time>2010-01-01T00:59:23Z</time>
      </trkpt>
      <trkpt lat="31.50544000" lon="34.69092000">
        <ele>158.00000</ele>
        <time>2010-01-01T00:59:51Z</time>
      </trkpt>
      <trkpt lat="31.50562000" lon="34.69097000">
        <ele>158.00000</ele>
        <time>2010-01-01T00:59:59Z</time>
      </trkpt>
      <trkpt lat="31.50670000" lon="34.69138000">
        <ele>162.00000</ele>
        <time>2010-01-01T01:00:44Z</time>
      </trkpt>
      <trkpt lat="31.50756000" lon="34.69154000">
        <ele>164.00000</ele>
        <time>2010-01-01T01:01:19Z</time>
      </trkpt>
      <trkpt lat="31.50806000" lon="34.69167000">
        <ele>166.00000</ele>
        <time>2010-01-01T01:01:39Z</time>
      </trkpt>
      <trkpt lat="31.50884000" lon="34.69193000">
        <ele>167.00000</ele>
        <time>2010-01-01T01:02:12Z</time>
      </trkpt>
      <trkpt lat="31.50896000" lon="34.69199000">
        <ele>168.00000</ele>
        <time>2010-01-01T01:02:17Z</time>
      </trkpt>
      <trkpt lat="31.50918000" lon="34.69216000">
        <ele>169.00000</ele>
        <time>2010-01-01T01:02:28Z</time>
      </trkpt>
      <trkpt lat="31.50929000" lon="34.69223000">
        <ele>169.00000</ele>
        <time>2010-01-01T01:02:33Z</time>
      </trkpt>
      <trkpt lat="31.50949000" lon="34.69227000">
        <ele>169.00000</ele>
        <time>2010-01-01T01:02:41Z</time>
      </trkpt>
      <trkpt lat="31.50958000" lon="34.69226000">
        <ele>169.00000</ele>
        <time>2010-01-01T01:02:44Z</time>
      </trkpt>
      <trkpt lat="31.50976000" lon="34.69222000">
        <ele>170.00000</ele>
        <time>2010-01-01T01:02:52Z</time>
      </trkpt>
      <trkpt lat="31.51007000" lon="34.69212000">
        <ele>172.00000</ele>
        <time>2010-01-01T01:03:05Z</time>
      </trkpt>
      <trkpt lat="31.51021000" lon="34.69213000">
        <ele>172.00000</ele>
        <time>2010-01-01T01:03:10Z</time>
      </trkpt>
      <trkpt lat="31.51056000" lon="34.69220000">
        <ele>171.00000</ele>
        <time>2010-01-01T01:03:24Z</time>
      </trkpt>
      <trkpt lat="31.51072000" lon="34.69220000">
        <ele>171.00000</ele>
        <time>2010-01-01T01:03:31Z</time>
      </trkpt>
      <trkpt lat="31.51080000" lon="34.69217000">
        <ele>171.00000</ele>
        <time>2010-01-01T01:03:34Z</time>
      </trkpt>
      <trkpt lat="31.51106000" lon="34.69218000">
        <ele>172.00000</ele>
        <time>2010-01-01T01:03:45Z</time>
      </trkpt>
      <trkpt lat="31.51137000" lon="34.69230000">
        <ele>174.00000</ele>
        <time>2010-01-01T01:03:58Z</time>
      </trkpt>
      <trkpt lat="31.51156000" lon="34.69195000">
        <ele>175.00000</ele>
        <time>2010-01-01T01:04:12Z</time>
      </trkpt>
      <trkpt lat="31.51168000" lon="34.69177000">
        <ele>175.00000</ele>
        <time>2010-01-01T01:04:20Z</time>
      </trkpt>
      <trkpt lat="31.51175000" lon="34.69191000">
        <ele>175.00000</ele>
        <time>2010-01-01T01:04:25Z</time>
      </trkpt>
      <trkpt lat="31.51191000" lon="34.69201000">
        <ele>174.00000</ele>
        <time>2010-01-01T01:04:32Z</time>
      </trkpt>
      <trkpt lat="31.51198000" lon="34.69202000">
        <ele>173.00000</ele>
        <time>2010-01-01T01:04:35Z</time>
      </trkpt>
      <trkpt lat="31.51216000" lon="34.69198000">
        <ele>172.00000</ele>
        <time>2010-01-01T01:04:43Z</time>
      </trkpt>
      <trkpt lat="31.51241000" lon="34.69197000">
        <ele>171.00000</ele>
        <time>2010-01-01T01:04:53Z</time>
      </trkpt>
      <trkpt lat="31.51272000" lon="34.69189000">
        <ele>170.00000</ele>
        <time>2010-01-01T01:05:05Z</time>
      </trkpt>
      <trkpt lat="31.51289000" lon="34.69196000">
        <ele>168.00000</ele>
        <time>2010-01-01T01:05:12Z</time>
      </trkpt>
      <trkpt lat="31.51299000" lon="34.69198000">
        <ele>168.00000</ele>
        <time>2010-01-01T01:05:17Z</time>
      </trkpt>
      <trkpt lat="31.51310000" lon="34.69201000">
        <ele>167.00000</ele>
        <time>2010-01-01T01:05:21Z</time>
      </trkpt>
      <trkpt lat="31.51356000" lon="34.69202000">
        <ele>165.00000</ele>
        <time>2010-01-01T01:05:39Z</time>
      </trkpt>
      <trkpt lat="31.51363000" lon="34.69205000">
        <ele>165.00000</ele>
        <time>2010-01-01T01:05:42Z</time>
      </trkpt>
      <trkpt lat="31.51377000" lon="34.69207000">
        <ele>165.00000</ele>
        <time>2010-01-01T01:05:48Z</time>
      </trkpt>
      <trkpt lat="31.51388000" lon="34.69210000">
        <ele>166.00000</ele>
        <time>2010-01-01T01:05:53Z</time>
      </trkpt>
      <trkpt lat="31.51395000" lon="34.69210000">
        <ele>165.00000</ele>
        <time>2010-01-01T01:05:55Z</time>
      </trkpt>
      <trkpt lat="31.51405000" lon="34.69207000">
        <ele>164.00000</ele>
        <time>2010-01-01T01:06:00Z</time>
      </trkpt>
      <trkpt lat="31.51434000" lon="34.69206000">
        <ele>162.00000</ele>
        <time>2010-01-01T01:06:11Z</time>
      </trkpt>
      <trkpt lat="31.51455000" lon="34.69191000">
        <ele>160.00000</ele>
        <time>2010-01-01T01:06:21Z</time>
      </trkpt>
      <trkpt lat="31.51475000" lon="34.69183000">
        <ele>160.00000</ele>
        <time>2010-01-01T01:06:29Z</time>
      </trkpt>
      <trkpt lat="31.51513000" lon="34.69160000">
        <ele>155.00000</ele>
        <time>2010-01-01T01:06:47Z</time>
      </trkpt>
      <trkpt lat="31.51526000" lon="34.69155000">
        <ele>154.00000</ele>
        <time>2010-01-01T01:06:52Z</time>
      </trkpt>
      <trkpt lat="31.51544000" lon="34.69154000">
        <ele>154.00000</ele>
        <time>2010-01-01T01:06:59Z</time>
      </trkpt>
      <trkpt lat="31.51551000" lon="34.69150000">
        <ele>154.00000</ele>
        <time>2010-01-01T01:07:02Z</time>
      </trkpt>
      <trkpt lat="31.51559000" lon="34.69143000">
        <ele>153.00000</ele>
        <time>2010-01-01T01:07:06Z</time>
      </trkpt>
      <trkpt lat="31.51582000" lon="34.69116000">
        <ele>153.00000</ele>
        <time>2010-01-01T01:07:19Z</time>
      </trkpt>
      <trkpt lat="31.51600000" lon="34.69103000">
        <ele>152.00000</ele>
        <time>2010-01-01T01:07:28Z</time>
      </trkpt>
      <trkpt lat="31.51604000" lon="34.69103000">
        <ele>151.00000</ele>
        <time>2010-01-01T01:07:29Z</time>
      </trkpt>
      <trkpt lat="31.51625000" lon="34.69086000">
        <ele>150.00000</ele>
        <time>2010-01-01T01:07:40Z</time>
      </trkpt>
      <trkpt lat="31.51655000" lon="34.69074000">
        <ele>148.00000</ele>
        <time>2010-01-01T01:07:52Z</time>
      </trkpt>
      <trkpt lat="31.51680000" lon="34.69072000">
        <ele>146.00000</ele>
        <time>2010-01-01T01:08:02Z</time>
      </trkpt>
      <trkpt lat="31.51703000" lon="34.69060000">
        <ele>144.00000</ele>
        <time>2010-01-01T01:08:13Z</time>
      </trkpt>
      <trkpt lat="31.51720000" lon="34.69038000">
        <ele>143.00000</ele>
        <time>2010-01-01T01:08:23Z</time>
      </trkpt>
      <trkpt lat="31.51735000" lon="34.69015000">
        <ele>143.00000</ele>
        <time>2010-01-01T01:08:33Z</time>
      </trkpt>
      <trkpt lat="31.51747000" lon="34.69006000">
        <ele>143.00000</ele>
        <time>2010-01-01T01:08:38Z</time>
      </trkpt>
      <trkpt lat="31.51760000" lon="34.69000000">
        <ele>142.00000</ele>
        <time>2010-01-01T01:08:44Z</time>
      </trkpt>
      <trkpt lat="31.51772000" lon="34.68984000">
        <ele>142.00000</ele>
        <time>2010-01-01T01:08:51Z</time>
      </trkpt>
      <trkpt lat="31.51776000" lon="34.68983000">
        <ele>142.00000</ele>
        <time>2010-01-01T01:08:53Z</time>
      </trkpt>
      <trkpt lat="31.51778000" lon="34.68986000">
        <ele>141.00000</ele>
        <time>2010-01-01T01:08:54Z</time>
      </trkpt>
      <trkpt lat="31.51786000" lon="34.69004000">
        <ele>141.00000</ele>
        <time>2010-01-01T01:09:01Z</time>
      </trkpt>
      <trkpt lat="31.51792000" lon="34.69009000">
        <ele>140.00000</ele>
        <time>2010-01-01T01:09:04Z</time>
      </trkpt>
      <trkpt lat="31.51803000" lon="34.69009000">
        <ele>139.00000</ele>
        <time>2010-01-01T01:09:08Z</time>
      </trkpt>
      <trkpt lat="31.51813000" lon="34.69003000">
        <ele>138.00000</ele>
        <time>2010-01-01T01:09:13Z</time>
      </trkpt>
      <trkpt lat="31.51822000" lon="34.68996000">
        <ele>137.00000</ele>
        <time>2010-01-01T01:09:17Z</time>
      </trkpt>
      <trkpt lat="31.51839000" lon="34.68975000">
        <ele>137.00000</ele>
        <time>2010-01-01T01:09:27Z</time>
      </trkpt>
      <trkpt lat="31.51855000" lon="34.68966000">
        <ele>137.00000</ele>
        <time>2010-01-01T01:09:34Z</time>
      </trkpt>
      <trkpt lat="31.51861000" lon="34.68961000">
        <ele>137.00000</ele>
        <time>2010-01-01T01:09:37Z</time>
      </trkpt>
      <trkpt lat="31.51869000" lon="34.68948000">
        <ele>137.00000</ele>
        <time>2010-01-01T01:09:43Z</time>
      </trkpt>
      <trkpt lat="31.51874000" lon="34.68941000">
        <ele>137.00000</ele>
        <time>2010-01-01T01:09:46Z</time>
      </trkpt>
      <trkpt lat="31.51875000" lon="34.68908000">
        <ele>137.00000</ele>
        <time>2010-01-01T01:09:57Z</time>
      </trkpt>
      <trkpt lat="31.51879000" lon="34.68896000">
        <ele>137.00000</ele>
        <time>2010-01-01T01:10:01Z</time>
      </trkpt>
      <trkpt lat="31.51886000" lon="34.68888000">
        <ele>136.00000</ele>
        <time>2010-01-01T01:10:05Z</time>
      </trkpt>
      <trkpt lat="31.51920000" lon="34.68864000">
        <ele>136.00000</ele>
        <time>2010-01-01T01:10:21Z</time>
      </trkpt>
      <trkpt lat="31.51924000" lon="34.68857000">
        <ele>135.00000</ele>
        <time>2010-01-01T01:10:24Z</time>
      </trkpt>
      <trkpt lat="31.51931000" lon="34.68833000">
        <ele>134.00000</ele>
        <time>2010-01-01T01:10:33Z</time>
      </trkpt>
      <trkpt lat="31.51932000" lon="34.68825000">
        <ele>134.00000</ele>
        <time>2010-01-01T01:10:35Z</time>
      </trkpt>
      <trkpt lat="31.51925000" lon="34.68779000">
        <ele>132.00000</ele>
        <time>2010-01-01T01:10:51Z</time>
      </trkpt>
      <trkpt lat="31.51926000" lon="34.68754000">
        <ele>132.00000</ele>
        <time>2010-01-01T01:11:00Z</time>
      </trkpt>
      <trkpt lat="31.51929000" lon="34.68741000">
        <ele>132.00000</ele>
        <time>2010-01-01T01:11:04Z</time>
      </trkpt>
      <trkpt lat="31.51929000" lon="34.68733000">
        <ele>132.00000</ele>
        <time>2010-01-01T01:11:07Z</time>
      </trkpt>
      <trkpt lat="31.51922000" lon="34.68718000">
        <ele>132.00000</ele>
        <time>2010-01-01T01:11:13Z</time>
      </trkpt>
      <trkpt lat="31.51919000" lon="34.68706000">
        <ele>132.00000</ele>
        <time>2010-01-01T01:11:17Z</time>
      </trkpt>
      <trkpt lat="31.51918000" lon="34.68660000">
        <ele>132.00000</ele>
        <time>2010-01-01T01:11:33Z</time>
      </trkpt>
      <trkpt lat="31.51915000" lon="34.68652000">
        <ele>132.00000</ele>
        <time>2010-01-01T01:11:36Z</time>
      </trkpt>
      <trkpt lat="31.51903000" lon="34.68632000">
        <ele>131.00000</ele>
        <time>2010-01-01T01:11:44Z</time>
      </trkpt>
      <trkpt lat="31.51892000" lon="34.68605000">
        <ele>129.00000</ele>
        <time>2010-01-01T01:11:55Z</time>
      </trkpt>
      <trkpt lat="31.51892000" lon="34.68597000">
        <ele>129.00000</ele>
        <time>2010-01-01T01:11:57Z</time>
      </trkpt>
      <trkpt lat="31.51903000" lon="34.68596000">
        <ele>129.00000</ele>
        <time>2010-01-01T01:12:02Z</time>
      </trkpt>
      <trkpt lat="31.51906000" lon="34.68594000">
        <ele>129.00000</ele>
        <time>2010-01-01T01:12:03Z</time>
      </trkpt>
      <trkpt lat="31.51909000" lon="34.68587000">
        <ele>129.00000</ele>
        <time>2010-01-01T01:12:06Z</time>
      </trkpt>
      <trkpt lat="31.51910000" lon="34.68579000">
        <ele>129.00000</ele>
        <time>2010-01-01T01:12:09Z</time>
      </trkpt>
      <trkpt lat="31.51902000" lon="34.68537000">
        <ele>131.00000</ele>
        <time>2010-01-01T01:12:23Z</time>
      </trkpt>
      <trkpt lat="31.51896000" lon="34.68527000">
        <ele>131.00000</ele>
        <time>2010-01-01T01:12:27Z</time>
      </trkpt>
      <trkpt lat="31.51887000" lon="34.68520000">
        <ele>130.00000</ele>
        <time>2010-01-01T01:12:32Z</time>
      </trkpt>
      <trkpt lat="31.51884000" lon="34.68513000">
        <ele>130.00000</ele>
        <time>2010-01-01T01:12:34Z</time>
      </trkpt>
      <trkpt lat="31.51883000" lon="34.68500000">
        <ele>129.00000</ele>
        <time>2010-01-01T01:12:39Z</time>
      </trkpt>
      <trkpt lat="31.51887000" lon="34.68476000">
        <ele>129.00000</ele>
        <time>2010-01-01T01:12:47Z</time>
      </trkpt>
      <trkpt lat="31.51886000" lon="34.68468000">
        <ele>128.00000</ele>
        <time>2010-01-01T01:12:50Z</time>
      </trkpt>
      <trkpt lat="31.51874000" lon="34.68442000">
        <ele>128.00000</ele>
        <time>2010-01-01T01:13:00Z</time>
      </trkpt>
      <trkpt lat="31.51871000" lon="34.68430000">
        <ele>128.00000</ele>
        <time>2010-01-01T01:13:04Z</time>
      </trkpt>
      <trkpt lat="31.51871000" lon="34.68421000">
        <ele>128.00000</ele>
        <time>2010-01-01T01:13:07Z</time>
      </trkpt>
      <trkpt lat="31.51874000" lon="34.68413000">
        <ele>128.00000</ele>
        <time>2010-01-01T01:13:10Z</time>
      </trkpt>
      <trkpt lat="31.51879000" lon="34.68407000">
        <ele>128.00000</ele>
        <time>2010-01-01T01:13:13Z</time>
      </trkpt>
      <trkpt lat="31.51891000" lon="34.68400000">
        <ele>128.00000</ele>
        <time>2010-01-01T01:13:19Z</time>
      </trkpt>
      <trkpt lat="31.51899000" lon="34.68392000">
        <ele>128.00000</ele>
        <time>2010-01-01T01:13:23Z</time>
      </trkpt>
      <trkpt lat="31.51900000" lon="34.68388000">
        <ele>128.00000</ele>
        <time>2010-01-01T01:13:24Z</time>
      </trkpt>
      <trkpt lat="31.51900000" lon="34.68383000">
        <ele>128.00000</ele>
        <time>2010-01-01T01:13:26Z</time>
      </trkpt>
      <trkpt lat="31.51898000" lon="34.68376000">
        <ele>128.00000</ele>
        <time>2010-01-01T01:13:28Z</time>
      </trkpt>
      <trkpt lat="31.51899000" lon="34.68368000">
        <ele>128.00000</ele>
        <time>2010-01-01T01:13:31Z</time>
      </trkpt>
      <trkpt lat="31.51904000" lon="34.68361000">
        <ele>128.00000</ele>
        <time>2010-01-01T01:13:34Z</time>
      </trkpt>
      <trkpt lat="31.51924000" lon="34.68345000">
        <ele>128.00000</ele>
        <time>2010-01-01T01:13:44Z</time>
      </trkpt>
      <trkpt lat="31.51957000" lon="34.68306000">
        <ele>127.00000</ele>
        <time>2010-01-01T01:14:03Z</time>
      </trkpt>
      <trkpt lat="31.51972000" lon="34.68272000">
        <ele>126.00000</ele>
        <time>2010-01-01T01:14:16Z</time>
      </trkpt>
      <trkpt lat="31.51988000" lon="34.68225000">
        <ele>127.00000</ele>
        <time>2010-01-01T01:14:33Z</time>
      </trkpt>
      <trkpt lat="31.51996000" lon="34.68217000">
        <ele>127.00000</ele>
        <time>2010-01-01T01:14:37Z</time>
      </trkpt>
      <trkpt lat="31.52003000" lon="34.68214000">
        <ele>127.00000</ele>
        <time>2010-01-01T01:14:40Z</time>
      </trkpt>
      <trkpt lat="31.52017000" lon="34.68213000">
        <ele>129.00000</ele>
        <time>2010-01-01T01:14:46Z</time>
      </trkpt>
      <trkpt lat="31.52019000" lon="34.68210000">
        <ele>129.00000</ele>
        <time>2010-01-01T01:14:47Z</time>
      </trkpt>
      <trkpt lat="31.52018000" lon="34.68198000">
        <ele>128.00000</ele>
        <time>2010-01-01T01:14:51Z</time>
      </trkpt>
      <trkpt lat="31.52011000" lon="34.68178000">
        <ele>126.00000</ele>
        <time>2010-01-01T01:14:59Z</time>
      </trkpt>
      <trkpt lat="31.52005000" lon="34.68168000">
        <ele>124.00000</ele>
        <time>2010-01-01T01:15:03Z</time>
      </trkpt>
      <trkpt lat="31.51994000" lon="34.68157000">
        <ele>123.00000</ele>
        <time>2010-01-01T01:15:09Z</time>
      </trkpt>
      <trkpt lat="31.51979000" lon="34.68133000">
        <ele>124.00000</ele>
        <time>2010-01-01T01:15:19Z</time>
      </trkpt>
      <trkpt lat="31.51966000" lon="34.68124000">
        <ele>125.00000</ele>
        <time>2010-01-01T01:15:25Z</time>
      </trkpt>
      <trkpt lat="31.51949000" lon="34.68123000">
        <ele>125.00000</ele>
        <time>2010-01-01T01:15:32Z</time>
      </trkpt>
      <trkpt lat="31.51942000" lon="34.68119000">
        <ele>125.00000</ele>
        <time>2010-01-01T01:15:35Z</time>
      </trkpt>
      <trkpt lat="31.51940000" lon="34.68116000">
        <ele>125.00000</ele>
        <time>2010-01-01T01:15:36Z</time>
      </trkpt>
      <trkpt lat="31.51931000" lon="34.68062000">
        <ele>126.00000</ele>
        <time>2010-01-01T01:15:55Z</time>
      </trkpt>
      <trkpt lat="31.51931000" lon="34.68054000">
        <ele>126.00000</ele>
        <time>2010-01-01T01:15:58Z</time>
      </trkpt>
      <trkpt lat="31.51936000" lon="34.68043000">
        <ele>126.00000</ele>
        <time>2010-01-01T01:16:02Z</time>
      </trkpt>
      <trkpt lat="31.51944000" lon="34.68034000">
        <ele>126.00000</ele>
        <time>2010-01-01T01:16:06Z</time>
      </trkpt>
      <trkpt lat="31.51968000" lon="34.68017000">
        <ele>125.00000</ele>
        <time>2010-01-01T01:16:17Z</time>
      </trkpt>
      <trkpt lat="31.51974000" lon="34.68011000">
        <ele>125.00000</ele>
        <time>2010-01-01T01:16:21Z</time>
      </trkpt>
      <trkpt lat="31.51977000" lon="34.67995000">
        <ele>125.00000</ele>
        <time>2010-01-01T01:16:26Z</time>
      </trkpt>
      <trkpt lat="31.51972000" lon="34.67975000">
        <ele>124.00000</ele>
        <time>2010-01-01T01:16:33Z</time>
      </trkpt>
      <trkpt lat="31.51973000" lon="34.67966000">
        <ele>124.00000</ele>
        <time>2010-01-01T01:16:36Z</time>
      </trkpt>
      <trkpt lat="31.51978000" lon="34.67961000">
        <ele>124.00000</ele>
        <time>2010-01-01T01:16:39Z</time>
      </trkpt>
      <trkpt lat="31.51985000" lon="34.67957000">
        <ele>125.00000</ele>
        <time>2010-01-01T01:16:42Z</time>
      </trkpt>
      <trkpt lat="31.52003000" lon="34.67956000">
        <ele>126.00000</ele>
        <time>2010-01-01T01:16:49Z</time>
      </trkpt>
      <trkpt lat="31.52009000" lon="34.67952000">
        <ele>126.00000</ele>
        <time>2010-01-01T01:16:52Z</time>
      </trkpt>
      <trkpt lat="31.52016000" lon="34.67952000">
        <ele>127.00000</ele>
        <time>2010-01-01T01:16:55Z</time>
      </trkpt>
      <trkpt lat="31.52039000" lon="34.67939000">
        <ele>128.00000</ele>
        <time>2010-01-01T01:17:05Z</time>
      </trkpt>
      <trkpt lat="31.52068000" lon="34.67939000">
        <ele>130.00000</ele>
        <time>2010-01-01T01:17:17Z</time>
      </trkpt>
      <trkpt lat="31.52071000" lon="34.67923000">
        <ele>129.00000</ele>
        <time>2010-01-01T01:17:22Z</time>
      </trkpt>
      <trkpt lat="31.52069000" lon="34.67921000">
        <ele>129.00000</ele>
        <time>2010-01-01T01:17:23Z</time>
      </trkpt>
      <trkpt lat="31.52038000" lon="34.67894000">
        <ele>129.00000</ele>
        <time>2010-01-01T01:17:39Z</time>
      </trkpt>
      <trkpt lat="31.52033000" lon="34.67887000">
        <ele>129.00000</ele>
        <time>2010-01-01T01:17:42Z</time>
      </trkpt>
      <trkpt lat="31.52029000" lon="34.67876000">
        <ele>129.00000</ele>
        <time>2010-01-01T01:17:46Z</time>
      </trkpt>
      <trkpt lat="31.52031000" lon="34.67868000">
        <ele>129.00000</ele>
        <time>2010-01-01T01:17:49Z</time>
      </trkpt>
      <trkpt lat="31.52038000" lon="34.67858000">
        <ele>129.00000</ele>
        <time>2010-01-01T01:17:53Z</time>
      </trkpt>
      <trkpt lat="31.52057000" lon="34.67849000">
        <ele>130.00000</ele>
        <time>2010-01-01T01:18:02Z</time>
      </trkpt>
      <trkpt lat="31.52062000" lon="34.67837000">
        <ele>131.00000</ele>
        <time>2010-01-01T01:18:06Z</time>
      </trkpt>
      <trkpt lat="31.52064000" lon="34.67825000">
        <ele>131.00000</ele>
        <time>2010-01-01T01:18:10Z</time>
      </trkpt>
      <trkpt lat="31.52065000" lon="34.67807000">
        <ele>132.00000</ele>
        <time>2010-01-01T01:18:16Z</time>
      </trkpt>
      <trkpt lat="31.52058000" lon="34.67776000">
        <ele>131.00000</ele>
        <time>2010-01-01T01:18:27Z</time>
      </trkpt>
      <trkpt lat="31.52057000" lon="34.67755000">
        <ele>130.00000</ele>
        <time>2010-01-01T01:18:35Z</time>
      </trkpt>
      <trkpt lat="31.52051000" lon="34.67730000">
        <ele>131.00000</ele>
        <time>2010-01-01T01:18:43Z</time>
      </trkpt>
      <trkpt lat="31.52050000" lon="34.67718000">
        <ele>131.00000</ele>
        <time>2010-01-01T01:18:48Z</time>
      </trkpt>
      <trkpt lat="31.52052000" lon="34.67710000">
        <ele>132.00000</ele>
        <time>2010-01-01T01:18:50Z</time>
      </trkpt>
      <trkpt lat="31.52067000" lon="34.67658000">
        <ele>132.00000</ele>
        <time>2010-01-01T01:19:09Z</time>
      </trkpt>
      <trkpt lat="31.52079000" lon="34.67631000">
        <ele>132.00000</ele>
        <time>2010-01-01T01:19:19Z</time>
      </trkpt>
      <trkpt lat="31.52082000" lon="34.67544000">
        <ele>129.00000</ele>
        <time>2010-01-01T01:19:49Z</time>
      </trkpt>
      <trkpt lat="31.52100000" lon="34.67535000">
        <ele>129.00000</ele>
        <time>2010-01-01T01:19:57Z</time>
      </trkpt>
      <trkpt lat="31.52110000" lon="34.67528000">
        <ele>128.00000</ele>
        <time>2010-01-01T01:20:02Z</time>
      </trkpt>
      <trkpt lat="31.52120000" lon="34.67524000">
        <ele>128.00000</ele>
        <time>2010-01-01T01:20:06Z</time>
      </trkpt>
      <trkpt lat="31.52134000" lon="34.67522000">
        <ele>128.00000</ele>
        <time>2010-01-01T01:20:12Z</time>
      </trkpt>
      <trkpt lat="31.52181000" lon="34.67523000">
        <ele>128.00000</ele>
        <time>2010-01-01T01:20:30Z</time>
      </trkpt>
      <trkpt lat="31.52187000" lon="34.67526000">
        <ele>128.00000</ele>
        <time>2010-01-01T01:20:33Z</time>
      </trkpt>
      <trkpt lat="31.52195000" lon="34.67527000">
        <ele>128.00000</ele>
        <time>2010-01-01T01:20:36Z</time>
      </trkpt>
      <trkpt lat="31.52219000" lon="34.67544000">
        <ele>129.00000</ele>
        <time>2010-01-01T01:20:47Z</time>
      </trkpt>
      <trkpt lat="31.52230000" lon="34.67548000">
        <ele>128.00000</ele>
        <time>2010-01-01T01:20:52Z</time>
      </trkpt>
      <trkpt lat="31.52237000" lon="34.67547000">
        <ele>127.00000</ele>
        <time>2010-01-01T01:20:55Z</time>
      </trkpt>
      <trkpt lat="31.52256000" lon="34.67536000">
        <ele>126.00000</ele>
        <time>2010-01-01T01:21:03Z</time>
      </trkpt>
      <trkpt lat="31.52270000" lon="34.67536000">
        <ele>124.00000</ele>
        <time>2010-01-01T01:21:09Z</time>
      </trkpt>
      <trkpt lat="31.52287000" lon="34.67544000">
        <ele>124.00000</ele>
        <time>2010-01-01T01:21:16Z</time>
      </trkpt>
      <trkpt lat="31.52326000" lon="34.67574000">
        <ele>123.00000</ele>
        <time>2010-01-01T01:21:35Z</time>
      </trkpt>
      <trkpt lat="31.52344000" lon="34.67587000">
        <ele>122.00000</ele>
        <time>2010-01-01T01:21:43Z</time>
      </trkpt>
      <trkpt lat="31.52355000" lon="34.67591000">
        <ele>121.00000</ele>
        <time>2010-01-01T01:21:48Z</time>
      </trkpt>
      <trkpt lat="31.52354000" lon="34.67591000">
        <ele>121.00000</ele>
        <time>2010-01-01T01:21:48Z</time>
      </trkpt>
      <trkpt lat="31.52361000" lon="34.67591000">
        <ele>120.00000</ele>
        <time>2010-01-01T01:21:51Z</time>
      </trkpt>
      <trkpt lat="31.52365000" lon="34.67589000">
        <ele>120.00000</ele>
        <time>2010-01-01T01:21:53Z</time>
      </trkpt>
      <trkpt lat="31.52376000" lon="34.67579000">
        <ele>121.00000</ele>
        <time>2010-01-01T01:21:59Z</time>
      </trkpt>
      <trkpt lat="31.52380000" lon="34.67572000">
        <ele>121.00000</ele>
        <time>2010-01-01T01:22:01Z</time>
      </trkpt>
      <trkpt lat="31.52381000" lon="34.67564000">
        <ele>121.00000</ele>
        <time>2010-01-01T01:22:04Z</time>
      </trkpt>
      <trkpt lat="31.52378000" lon="34.67547000">
        <ele>122.00000</ele>
        <time>2010-01-01T01:22:10Z</time>
      </trkpt>
      <trkpt lat="31.52374000" lon="34.67540000">
        <ele>122.00000</ele>
        <time>2010-01-01T01:22:13Z</time>
      </trkpt>
      <trkpt lat="31.52351000" lon="34.67508000">
        <ele>122.00000</ele>
        <time>2010-01-01T01:22:27Z</time>
      </trkpt>
      <trkpt lat="31.52346000" lon="34.67496000">
        <ele>122.00000</ele>
        <time>2010-01-01T01:22:32Z</time>
      </trkpt>
      <trkpt lat="31.52343000" lon="34.67484000">
        <ele>121.00000</ele>
        <time>2010-01-01T01:22:36Z</time>
      </trkpt>
      <trkpt lat="31.52344000" lon="34.67472000">
        <ele>121.00000</ele>
        <time>2010-01-01T01:22:40Z</time>
      </trkpt>
      <trkpt lat="31.52351000" lon="34.67452000">
        <ele>119.00000</ele>
        <time>2010-01-01T01:22:48Z</time>
      </trkpt>
      <trkpt lat="31.52354000" lon="34.67436000">
        <ele>117.00000</ele>
        <time>2010-01-01T01:22:53Z</time>
      </trkpt>
      <trkpt lat="31.52357000" lon="34.67411000">
        <ele>116.00000</ele>
        <time>2010-01-01T01:23:02Z</time>
      </trkpt>
      <trkpt lat="31.52357000" lon="34.67394000">
        <ele>115.00000</ele>
        <time>2010-01-01T01:23:08Z</time>
      </trkpt>
      <trkpt lat="31.52355000" lon="34.67381000">
        <ele>115.00000</ele>
        <time>2010-01-01T01:23:12Z</time>
      </trkpt>
      <trkpt lat="31.52350000" lon="34.67370000">
        <ele>114.00000</ele>
        <time>2010-01-01T01:23:16Z</time>
      </trkpt>
      <trkpt lat="31.52334000" lon="34.67342000">
        <ele>114.00000</ele>
        <time>2010-01-01T01:23:28Z</time>
      </trkpt>
      <trkpt lat="31.52331000" lon="34.67335000">
        <ele>114.00000</ele>
        <time>2010-01-01T01:23:31Z</time>
      </trkpt>
      <trkpt lat="31.52331000" lon="34.67326000">
        <ele>114.00000</ele>
        <time>2010-01-01T01:23:34Z</time>
      </trkpt>
      <trkpt lat="31.52336000" lon="34.67315000">
        <ele>115.00000</ele>
        <time>2010-01-01T01:23:38Z</time>
      </trkpt>
      <trkpt lat="31.52344000" lon="34.67307000">
        <ele>115.00000</ele>
        <time>2010-01-01T01:23:42Z</time>
      </trkpt>
      <trkpt lat="31.52357000" lon="34.67287000">
        <ele>114.00000</ele>
        <time>2010-01-01T01:23:51Z</time>
      </trkpt>
      <trkpt lat="31.52359000" lon="34.67275000">
        <ele>114.00000</ele>
        <time>2010-01-01T01:23:55Z</time>
      </trkpt>
      <trkpt lat="31.52356000" lon="34.67246000">
        <ele>116.00000</ele>
        <time>2010-01-01T01:24:05Z</time>
      </trkpt>
      <trkpt lat="31.52356000" lon="34.67237000">
        <ele>117.00000</ele>
        <time>2010-01-01T01:24:08Z</time>
      </trkpt>
      <trkpt lat="31.52358000" lon="34.67233000">
        <ele>117.00000</ele>
        <time>2010-01-01T01:24:09Z</time>
      </trkpt>
      <trkpt lat="31.52360000" lon="34.67231000">
        <ele>117.00000</ele>
        <time>2010-01-01T01:24:10Z</time>
      </trkpt>
      <trkpt lat="31.52385000" lon="34.67230000">
        <ele>116.00000</ele>
        <time>2010-01-01T01:24:20Z</time>
      </trkpt>
      <trkpt lat="31.52388000" lon="34.67223000">
        <ele>116.00000</ele>
        <time>2010-01-01T01:24:23Z</time>
      </trkpt>
      <trkpt lat="31.52384000" lon="34.67207000">
        <ele>118.00000</ele>
        <time>2010-01-01T01:24:29Z</time>
      </trkpt>
      <trkpt lat="31.52374000" lon="34.67195000">
        <ele>118.00000</ele>
        <time>2010-01-01T01:24:35Z</time>
      </trkpt>
      <trkpt lat="31.52361000" lon="34.67188000">
        <ele>118.00000</ele>
        <time>2010-01-01T01:24:40Z</time>
      </trkpt>
      <trkpt lat="31.52350000" lon="34.67186000">
        <ele>118.00000</ele>
        <time>2010-01-01T01:24:45Z</time>
      </trkpt>
      <trkpt lat="31.52348000" lon="34.67183000">
        <ele>118.00000</ele>
        <time>2010-01-01T01:24:46Z</time>
      </trkpt>
      <trkpt lat="31.52345000" lon="34.67176000">
        <ele>118.00000</ele>
        <time>2010-01-01T01:24:49Z</time>
      </trkpt>
      <trkpt lat="31.52344000" lon="34.67168000">
        <ele>118.00000</ele>
        <time>2010-01-01T01:24:51Z</time>
      </trkpt>
      <trkpt lat="31.52345000" lon="34.67165000">
        <ele>118.00000</ele>
        <time>2010-01-01T01:24:53Z</time>
      </trkpt>
      <trkpt lat="31.52347000" lon="34.67160000">
        <ele>118.00000</ele>
        <time>2010-01-01T01:24:54Z</time>
      </trkpt>
      <trkpt lat="31.52364000" lon="34.67145000">
        <ele>117.00000</ele>
        <time>2010-01-01T01:25:03Z</time>
      </trkpt>
      <trkpt lat="31.52392000" lon="34.67126000">
        <ele>114.00000</ele>
        <time>2010-01-01T01:25:16Z</time>
      </trkpt>
      <trkpt lat="31.52397000" lon="34.67120000">
        <ele>113.00000</ele>
        <time>2010-01-01T01:25:19Z</time>
      </trkpt>
      <trkpt lat="31.52424000" lon="34.67099000">
        <ele>112.00000</ele>
        <time>2010-01-01T01:25:32Z</time>
      </trkpt>
      <trkpt lat="31.52443000" lon="34.67089000">
        <ele>111.00000</ele>
        <time>2010-01-01T01:25:40Z</time>
      </trkpt>
      <trkpt lat="31.52483000" lon="34.67089000">
        <ele>108.00000</ele>
        <time>2010-01-01T01:25:56Z</time>
      </trkpt>
      <trkpt lat="31.52518000" lon="34.67097000">
        <ele>107.00000</ele>
        <time>2010-01-01T01:26:10Z</time>
      </trkpt>
      <trkpt lat="31.52547000" lon="34.67097000">
        <ele>106.00000</ele>
        <time>2010-01-01T01:26:22Z</time>
      </trkpt>
      <trkpt lat="31.52570000" lon="34.67084000">
        <ele>105.00000</ele>
        <time>2010-01-01T01:26:32Z</time>
      </trkpt>
      <trkpt lat="31.52575000" lon="34.67084000">
        <ele>105.00000</ele>
        <time>2010-01-01T01:26:34Z</time>
      </trkpt>
      <trkpt lat="31.52627000" lon="34.67063000">
        <ele>107.00000</ele>
        <time>2010-01-01T01:26:56Z</time>
      </trkpt>
      <trkpt lat="31.52638000" lon="34.67062000">
        <ele>107.00000</ele>
        <time>2010-01-01T01:27:01Z</time>
      </trkpt>
      <trkpt lat="31.52644000" lon="34.67059000">
        <ele>107.00000</ele>
        <time>2010-01-01T01:27:03Z</time>
      </trkpt>
      <trkpt lat="31.52659000" lon="34.67058000">
        <ele>108.00000</ele>
        <time>2010-01-01T01:27:09Z</time>
      </trkpt>
      <trkpt lat="31.52690000" lon="34.67050000">
        <ele>110.00000</ele>
        <time>2010-01-01T01:27:22Z</time>
      </trkpt>
      <trkpt lat="31.52703000" lon="34.67044000">
        <ele>110.00000</ele>
        <time>2010-01-01T01:27:28Z</time>
      </trkpt>
      <trkpt lat="31.52750000" lon="34.67004000">
        <ele>103.00000</ele>
        <time>2010-01-01T01:27:51Z</time>
      </trkpt>
      <trkpt lat="31.52756000" lon="34.66995000">
        <ele>102.00000</ele>
        <time>2010-01-01T01:27:55Z</time>
      </trkpt>
      <trkpt lat="31.52763000" lon="34.66991000">
        <ele>102.00000</ele>
        <time>2010-01-01T01:27:58Z</time>
      </trkpt>
      <trkpt lat="31.52771000" lon="34.66983000">
        <ele>102.00000</ele>
        <time>2010-01-01T01:28:02Z</time>
      </trkpt>
      <trkpt lat="31.52784000" lon="34.66957000">
        <ele>102.00000</ele>
        <time>2010-01-01T01:28:12Z</time>
      </trkpt>
      <trkpt lat="31.52785000" lon="34.66949000">
        <ele>102.00000</ele>
        <time>2010-01-01T01:28:15Z</time>
      </trkpt>
      <trkpt lat="31.52783000" lon="34.66941000">
        <ele>102.00000</ele>
        <time>2010-01-01T01:28:18Z</time>
      </trkpt>
      <trkpt lat="31.52779000" lon="34.66937000">
        <ele>103.00000</ele>
        <time>2010-01-01T01:28:20Z</time>
      </trkpt>
      <trkpt lat="31.52779000" lon="34.66936000">
        <ele>103.00000</ele>
        <time>2010-01-01T01:28:20Z</time>
      </trkpt>
      <trkpt lat="31.52772000" lon="34.66932000">
        <ele>103.00000</ele>
        <time>2010-01-01T01:28:24Z</time>
      </trkpt>
      <trkpt lat="31.52754000" lon="34.66929000">
        <ele>103.00000</ele>
        <time>2010-01-01T01:28:31Z</time>
      </trkpt>
      <trkpt lat="31.52737000" lon="34.66922000">
        <ele>104.00000</ele>
        <time>2010-01-01T01:28:38Z</time>
      </trkpt>
      <trkpt lat="31.52721000" lon="34.66906000">
        <ele>104.00000</ele>
        <time>2010-01-01T01:28:46Z</time>
      </trkpt>
      <trkpt lat="31.52718000" lon="34.66894000">
        <ele>103.00000</ele>
        <time>2010-01-01T01:28:51Z</time>
      </trkpt>
      <trkpt lat="31.52720000" lon="34.66886000">
        <ele>102.00000</ele>
        <time>2010-01-01T01:28:54Z</time>
      </trkpt>
      <trkpt lat="31.52725000" lon="34.66880000">
        <ele>102.00000</ele>
        <time>2010-01-01T01:28:56Z</time>
      </trkpt>
      <trkpt lat="31.52745000" lon="34.66874000">
        <ele>101.00000</ele>
        <time>2010-01-01T01:29:05Z</time>
      </trkpt>
      <trkpt lat="31.52756000" lon="34.66873000">
        <ele>100.00000</ele>
        <time>2010-01-01T01:29:09Z</time>
      </trkpt>
      <trkpt lat="31.52771000" lon="34.66862000">
        <ele>100.00000</ele>
        <time>2010-01-01T01:29:16Z</time>
      </trkpt>
      <trkpt lat="31.52776000" lon="34.66856000">
        <ele>100.00000</ele>
        <time>2010-01-01T01:29:19Z</time>
      </trkpt>
      <trkpt lat="31.52779000" lon="34.66848000">
        <ele>100.00000</ele>
        <time>2010-01-01T01:29:22Z</time>
      </trkpt>
      <trkpt lat="31.52781000" lon="34.66836000">
        <ele>100.00000</ele>
        <time>2010-01-01T01:29:26Z</time>
      </trkpt>
      <trkpt lat="31.52780000" lon="34.66828000">
        <ele>101.00000</ele>
        <time>2010-01-01T01:29:29Z</time>
      </trkpt>
      <trkpt lat="31.52775000" lon="34.66817000">
        <ele>100.00000</ele>
        <time>2010-01-01T01:29:33Z</time>
      </trkpt>
      <trkpt lat="31.52763000" lon="34.66802000">
        <ele>101.00000</ele>
        <time>2010-01-01T01:29:40Z</time>
      </trkpt>
      <trkpt lat="31.52749000" lon="34.66789000">
        <ele>101.00000</ele>
        <time>2010-01-01T01:29:47Z</time>
      </trkpt>
      <trkpt lat="31.52737000" lon="34.66763000">
        <ele>101.00000</ele>
        <time>2010-01-01T01:29:57Z</time>
      </trkpt>
      <trkpt lat="31.52728000" lon="34.66750000">
        <ele>102.00000</ele>
        <time>2010-01-01T01:30:03Z</time>
      </trkpt>
      <trkpt lat="31.52704000" lon="34.66725000">
        <ele>102.00000</ele>
        <time>2010-01-01T01:30:16Z</time>
      </trkpt>
      <trkpt lat="31.52695000" lon="34.66706000">
        <ele>102.00000</ele>
        <time>2010-01-01T01:30:23Z</time>
      </trkpt>
      <trkpt lat="31.52691000" lon="34.66686000">
        <ele>102.00000</ele>
        <time>2010-01-01T01:30:30Z</time>
      </trkpt>
      <trkpt lat="31.52694000" lon="34.66674000">
        <ele>102.00000</ele>
        <time>2010-01-01T01:30:35Z</time>
      </trkpt>
      <trkpt lat="31.52697000" lon="34.66673000">
        <ele>103.00000</ele>
        <time>2010-01-01T01:30:36Z</time>
      </trkpt>
      <trkpt lat="31.52736000" lon="34.66693000">
        <ele>103.00000</ele>
        <time>2010-01-01T01:30:53Z</time>
      </trkpt>
      <trkpt lat="31.52754000" lon="34.66694000">
        <ele>102.00000</ele>
        <time>2010-01-01T01:31:00Z</time>
      </trkpt>
      <trkpt lat="31.52761000" lon="34.66693000">
        <ele>101.00000</ele>
        <time>2010-01-01T01:31:03Z</time>
      </trkpt>
      <trkpt lat="31.52766000" lon="34.66686000">
        <ele>100.00000</ele>
        <time>2010-01-01T01:31:06Z</time>
      </trkpt>
      <trkpt lat="31.52769000" lon="34.66675000">
        <ele>100.00000</ele>
        <time>2010-01-01T01:31:10Z</time>
      </trkpt>
      <trkpt lat="31.52772000" lon="34.66649000">
        <ele>100.00000</ele>
        <time>2010-01-01T01:31:19Z</time>
      </trkpt>
      <trkpt lat="31.52772000" lon="34.66624000">
        <ele>103.00000</ele>
        <time>2010-01-01T01:31:28Z</time>
      </trkpt>
      <trkpt lat="31.52765000" lon="34.66596000">
        <ele>107.00000</ele>
        <time>2010-01-01T01:31:38Z</time>
      </trkpt>
      <trkpt lat="31.52754230" lon="34.66574370">
        <ele>109.00000</ele>
        <time>2010-01-01T01:31:46Z</time>
      </trkpt>
      <trkpt lat="31.52741000" lon="34.66560000">
        <ele>110.00000</ele>
        <time>2010-01-01T01:31:53Z</time>
      </trkpt>
      <trkpt lat="31.52737000" lon="34.66552000">
        <ele>110.00000</ele>
        <time>2010-01-01T01:31:56Z</time>
      </trkpt>
      <trkpt lat="31.52726000" lon="34.66512000">
        <ele>112.00000</ele>
        <time>2010-01-01T01:32:11Z</time>
      </trkpt>
      <trkpt lat="31.52723000" lon="34.66479000">
        <ele>112.00000</ele>
        <time>2010-01-01T01:32:22Z</time>
      </trkpt>
      <trkpt lat="31.52720000" lon="34.66471000">
        <ele>113.00000</ele>
        <time>2010-01-01T01:32:25Z</time>
      </trkpt>
      <trkpt lat="31.52713000" lon="34.66470000">
        <ele>113.00000</ele>
        <time>2010-01-01T01:32:28Z</time>
      </trkpt>
      <trkpt lat="31.52699000" lon="34.66474000">
        <ele>113.00000</ele>
        <time>2010-01-01T01:32:34Z</time>
      </trkpt>
      <trkpt lat="31.52685000" lon="34.66474000">
        <ele>112.00000</ele>
        <time>2010-01-01T01:32:39Z</time>
      </trkpt>
      <trkpt lat="31.52671000" lon="34.66469000">
        <ele>113.00000</ele>
        <time>2010-01-01T01:32:45Z</time>
      </trkpt>
      <trkpt lat="31.52656000" lon="34.66459000">
        <ele>114.00000</ele>
        <time>2010-01-01T01:32:52Z</time>
      </trkpt>
      <trkpt lat="31.52636000" lon="34.66449000">
        <ele>114.00000</ele>
        <time>2010-01-01T01:33:01Z</time>
      </trkpt>
      <trkpt lat="31.52618000" lon="34.66449000">
        <ele>114.00000</ele>
        <time>2010-01-01T01:33:08Z</time>
      </trkpt>
      <trkpt lat="31.52608000" lon="34.66450000">
        <ele>114.00000</ele>
        <time>2010-01-01T01:33:12Z</time>
      </trkpt>
      <trkpt lat="31.52581000" lon="34.66461000">
        <ele>115.00000</ele>
        <time>2010-01-01T01:33:23Z</time>
      </trkpt>
      <trkpt lat="31.52563000" lon="34.66462000">
        <ele>116.00000</ele>
        <time>2010-01-01T01:33:31Z</time>
      </trkpt>
      <trkpt lat="31.52540000" lon="34.66474000">
        <ele>116.00000</ele>
        <time>2010-01-01T01:33:41Z</time>
      </trkpt>
      <trkpt lat="31.52526000" lon="34.66475000">
        <ele>116.00000</ele>
        <time>2010-01-01T01:33:46Z</time>
      </trkpt>
      <trkpt lat="31.52515000" lon="34.66473000">
        <ele>116.00000</ele>
        <time>2010-01-01T01:33:51Z</time>
      </trkpt>
      <trkpt lat="31.52503000" lon="34.66464000">
        <ele>117.00000</ele>
        <time>2010-01-01T01:33:56Z</time>
      </trkpt>
      <trkpt lat="31.52483000" lon="34.66425000">
        <ele>117.00000</ele>
        <time>2010-01-01T01:34:12Z</time>
      </trkpt>
      <trkpt lat="31.52473000" lon="34.66413000">
        <ele>117.00000</ele>
        <time>2010-01-01T01:34:18Z</time>
      </trkpt>
      <trkpt lat="31.52461000" lon="34.66404000">
        <ele>116.00000</ele>
        <time>2010-01-01T01:34:23Z</time>
      </trkpt>
      <trkpt lat="31.52451000" lon="34.66391000">
        <ele>115.00000</ele>
        <time>2010-01-01T01:34:29Z</time>
      </trkpt>
      <trkpt lat="31.52419000" lon="34.66340000">
        <ele>118.00000</ele>
        <time>2010-01-01T01:34:51Z</time>
      </trkpt>
      <trkpt lat="31.52414000" lon="34.66335000">
        <ele>118.00000</ele>
        <time>2010-01-01T01:34:54Z</time>
      </trkpt>
      <trkpt lat="31.52401000" lon="34.66329000">
        <ele>117.00000</ele>
        <time>2010-01-01T01:34:59Z</time>
      </trkpt>
      <trkpt lat="31.52373000" lon="34.66337000">
        <ele>116.00000</ele>
        <time>2010-01-01T01:35:11Z</time>
      </trkpt>
      <trkpt lat="31.52362000" lon="34.66337000">
        <ele>116.00000</ele>
        <time>2010-01-01T01:35:15Z</time>
      </trkpt>
      <trkpt lat="31.52356000" lon="34.66333000">
        <ele>115.00000</ele>
        <time>2010-01-01T01:35:18Z</time>
      </trkpt>
      <trkpt lat="31.52345000" lon="34.66333000">
        <ele>115.00000</ele>
        <time>2010-01-01T01:35:22Z</time>
      </trkpt>
      <trkpt lat="31.52334000" lon="34.66343000">
        <ele>116.00000</ele>
        <time>2010-01-01T01:35:28Z</time>
      </trkpt>
      <trkpt lat="31.52329000" lon="34.66350000">
        <ele>116.00000</ele>
        <time>2010-01-01T01:35:31Z</time>
      </trkpt>
      <trkpt lat="31.52319000" lon="34.66368000">
        <ele>117.00000</ele>
        <time>2010-01-01T01:35:38Z</time>
      </trkpt>
      <trkpt lat="31.52311000" lon="34.66375000">
        <ele>118.00000</ele>
        <time>2010-01-01T01:35:42Z</time>
      </trkpt>
      <trkpt lat="31.52307000" lon="34.66375000">
        <ele>118.00000</ele>
        <time>2010-01-01T01:35:44Z</time>
      </trkpt>
      <trkpt lat="31.52301000" lon="34.66372000">
        <ele>117.00000</ele>
        <time>2010-01-01T01:35:47Z</time>
      </trkpt>
      <trkpt lat="31.52288000" lon="34.66352000">
        <ele>117.00000</ele>
        <time>2010-01-01T01:35:55Z</time>
      </trkpt>
      <trkpt lat="31.52283000" lon="34.66346000">
        <ele>117.00000</ele>
        <time>2010-01-01T01:35:58Z</time>
      </trkpt>
      <trkpt lat="31.52272000" lon="34.66346000">
        <ele>117.00000</ele>
        <time>2010-01-01T01:36:02Z</time>
      </trkpt>
      <trkpt lat="31.52259000" lon="34.66353000">
        <ele>118.00000</ele>
        <time>2010-01-01T01:36:08Z</time>
      </trkpt>
      <trkpt lat="31.52247000" lon="34.66363000">
        <ele>120.00000</ele>
        <time>2010-01-01T01:36:14Z</time>
      </trkpt>
      <trkpt lat="31.52231000" lon="34.66386000">
        <ele>122.00000</ele>
        <time>2010-01-01T01:36:24Z</time>
      </trkpt>
      <trkpt lat="31.52221000" lon="34.66409000">
        <ele>122.00000</ele>
        <time>2010-01-01T01:36:33Z</time>
      </trkpt>
      <trkpt lat="31.52216000" lon="34.66442000">
        <ele>123.00000</ele>
        <time>2010-01-01T01:36:44Z</time>
      </trkpt>
      <trkpt lat="31.52215000" lon="34.66480000">
        <ele>126.00000</ele>
        <time>2010-01-01T01:36:57Z</time>
      </trkpt>
      <trkpt lat="31.52213000" lon="34.66488000">
        <ele>126.00000</ele>
        <time>2010-01-01T01:37:00Z</time>
      </trkpt>
      <trkpt lat="31.52211000" lon="34.66491000">
        <ele>126.00000</ele>
        <time>2010-01-01T01:37:02Z</time>
      </trkpt>
      <trkpt lat="31.52191000" lon="34.66500000">
        <ele>126.00000</ele>
        <time>2010-01-01T01:37:10Z</time>
      </trkpt>
      <trkpt lat="31.52184000" lon="34.66501000">
        <ele>126.00000</ele>
        <time>2010-01-01T01:37:13Z</time>
      </trkpt>
      <trkpt lat="31.52178000" lon="34.66506000">
        <ele>126.00000</ele>
        <time>2010-01-01T01:37:16Z</time>
      </trkpt>
      <trkpt lat="31.52176000" lon="34.66514000">
        <ele>127.00000</ele>
        <time>2010-01-01T01:37:19Z</time>
      </trkpt>
      <trkpt lat="31.52179000" lon="34.66521000">
        <ele>127.00000</ele>
        <time>2010-01-01T01:37:21Z</time>
      </trkpt>
      <trkpt lat="31.52204000" lon="34.66538000">
        <ele>126.00000</ele>
        <time>2010-01-01T01:37:33Z</time>
      </trkpt>
      <trkpt lat="31.52208000" lon="34.66544000">
        <ele>126.00000</ele>
        <time>2010-01-01T01:37:36Z</time>
      </trkpt>
      <trkpt lat="31.52210000" lon="34.66552000">
        <ele>126.00000</ele>
        <time>2010-01-01T01:37:38Z</time>
      </trkpt>
      <trkpt lat="31.52209000" lon="34.66561000">
        <ele>125.00000</ele>
        <time>2010-01-01T01:37:41Z</time>
      </trkpt>
      <trkpt lat="31.52200000" lon="34.66584000">
        <ele>124.00000</ele>
        <time>2010-01-01T01:37:50Z</time>
      </trkpt>
      <trkpt lat="31.52183000" lon="34.66648000">
        <ele>120.00000</ele>
        <time>2010-01-01T01:38:13Z</time>
      </trkpt>
      <trkpt lat="31.52176000" lon="34.66662000">
        <ele>121.00000</ele>
        <time>2010-01-01T01:38:19Z</time>
      </trkpt>
      <trkpt lat="31.52172000" lon="34.66665000">
        <ele>121.00000</ele>
        <time>2010-01-01T01:38:20Z</time>
      </trkpt>
      <trkpt lat="31.52166000" lon="34.66668000">
        <ele>122.00000</ele>
        <time>2010-01-01T01:38:23Z</time>
      </trkpt>
      <trkpt lat="31.52145000" lon="34.66667000">
        <ele>122.00000</ele>
        <time>2010-01-01T01:38:31Z</time>
      </trkpt>
      <trkpt lat="31.52138000" lon="34.66664000">
        <ele>122.00000</ele>
        <time>2010-01-01T01:38:34Z</time>
      </trkpt>
      <trkpt lat="31.52106000" lon="34.66663000">
        <ele>122.00000</ele>
        <time>2010-01-01T01:38:47Z</time>
      </trkpt>
      <trkpt lat="31.52095000" lon="34.66660000">
        <ele>122.00000</ele>
        <time>2010-01-01T01:38:52Z</time>
      </trkpt>
      <trkpt lat="31.52048000" lon="34.66659000">
        <ele>120.00000</ele>
        <time>2010-01-01T01:39:11Z</time>
      </trkpt>
      <trkpt lat="31.52021000" lon="34.66650000">
        <ele>118.00000</ele>
        <time>2010-01-01T01:39:22Z</time>
      </trkpt>
      <trkpt lat="31.51998000" lon="34.66638000">
        <ele>117.00000</ele>
        <time>2010-01-01T01:39:32Z</time>
      </trkpt>
      <trkpt lat="31.51991000" lon="34.66637000">
        <ele>117.00000</ele>
        <time>2010-01-01T01:39:35Z</time>
      </trkpt>
      <trkpt lat="31.51945000" lon="34.66617000">
        <ele>114.00000</ele>
        <time>2010-01-01T01:39:54Z</time>
      </trkpt>
      <trkpt lat="31.51927000" lon="34.66616000">
        <ele>113.00000</ele>
        <time>2010-01-01T01:40:02Z</time>
      </trkpt>
      <trkpt lat="31.51913000" lon="34.66612000">
        <ele>112.00000</ele>
        <time>2010-01-01T01:40:07Z</time>
      </trkpt>
      <trkpt lat="31.51902000" lon="34.66612000">
        <ele>112.00000</ele>
        <time>2010-01-01T01:40:12Z</time>
      </trkpt>
      <trkpt lat="31.51892000" lon="34.66616000">
        <ele>112.00000</ele>
        <time>2010-01-01T01:40:16Z</time>
      </trkpt>
      <trkpt lat="31.51877000" lon="34.66614000">
        <ele>112.00000</ele>
        <time>2010-01-01T01:40:22Z</time>
      </trkpt>
      <trkpt lat="31.51856000" lon="34.66618000">
        <ele>112.00000</ele>
        <time>2010-01-01T01:40:31Z</time>
      </trkpt>
      <trkpt lat="31.51846000" lon="34.66622000">
        <ele>112.00000</ele>
        <time>2010-01-01T01:40:35Z</time>
      </trkpt>
      <trkpt lat="31.51825000" lon="34.66637000">
        <ele>111.00000</ele>
        <time>2010-01-01T01:40:45Z</time>
      </trkpt>
      <trkpt lat="31.51809000" lon="34.66645000">
        <ele>110.00000</ele>
        <time>2010-01-01T01:40:52Z</time>
      </trkpt>
      <trkpt lat="31.51808000" lon="34.66645000">
        <ele>110.00000</ele>
        <time>2010-01-01T01:40:52Z</time>
      </trkpt>
      <trkpt lat="31.51750000" lon="34.66604000">
        <ele>107.00000</ele>
        <time>2010-01-01T01:41:19Z</time>
      </trkpt>
      <trkpt lat="31.51720000" lon="34.66591000">
        <ele>108.00000</ele>
        <time>2010-01-01T01:41:32Z</time>
      </trkpt>
      <trkpt lat="31.51705000" lon="34.66591000">
        <ele>108.00000</ele>
        <time>2010-01-01T01:41:38Z</time>
      </trkpt>
      <trkpt lat="31.51699000" lon="34.66594000">
        <ele>108.00000</ele>
        <time>2010-01-01T01:41:41Z</time>
      </trkpt>
      <trkpt lat="31.51692000" lon="34.66595000">
        <ele>109.00000</ele>
        <time>2010-01-01T01:41:43Z</time>
      </trkpt>
      <trkpt lat="31.51682000" lon="34.66582000">
        <ele>108.00000</ele>
        <time>2010-01-01T01:41:49Z</time>
      </trkpt>
      <trkpt lat="31.51674000" lon="34.66574000">
        <ele>108.00000</ele>
        <time>2010-01-01T01:41:54Z</time>
      </trkpt>
      <trkpt lat="31.51629000" lon="34.66548000">
        <ele>106.00000</ele>
        <time>2010-01-01T01:42:14Z</time>
      </trkpt>
      <trkpt lat="31.51594000" lon="34.66539000">
        <ele>108.00000</ele>
        <time>2010-01-01T01:42:28Z</time>
      </trkpt>
      <trkpt lat="31.51572000" lon="34.66540000">
        <ele>109.00000</ele>
        <time>2010-01-01T01:42:37Z</time>
      </trkpt>
      <trkpt lat="31.51563000" lon="34.66545000">
        <ele>109.00000</ele>
        <time>2010-01-01T01:42:41Z</time>
      </trkpt>
      <trkpt lat="31.51549000" lon="34.66559000">
        <ele>109.00000</ele>
        <time>2010-01-01T01:42:48Z</time>
      </trkpt>
      <trkpt lat="31.51540000" lon="34.66564000">
        <ele>109.00000</ele>
        <time>2010-01-01T01:42:52Z</time>
      </trkpt>
      <trkpt lat="31.51532000" lon="34.66564000">
        <ele>109.00000</ele>
        <time>2010-01-01T01:42:55Z</time>
      </trkpt>
      <trkpt lat="31.51522000" lon="34.66561000">
        <ele>109.00000</ele>
        <time>2010-01-01T01:42:59Z</time>
      </trkpt>
      <trkpt lat="31.51508000" lon="34.66561000">
        <ele>109.00000</ele>
        <time>2010-01-01T01:43:05Z</time>
      </trkpt>
      <trkpt lat="31.51488000" lon="34.66569000">
        <ele>109.00000</ele>
        <time>2010-01-01T01:43:13Z</time>
      </trkpt>
      <trkpt lat="31.51478000" lon="34.66575000">
        <ele>110.00000</ele>
        <time>2010-01-01T01:43:18Z</time>
      </trkpt>
      <trkpt lat="31.51460000" lon="34.66594000">
        <ele>113.00000</ele>
        <time>2010-01-01T01:43:28Z</time>
      </trkpt>
      <trkpt lat="31.51434000" lon="34.66608000">
        <ele>116.00000</ele>
        <time>2010-01-01T01:43:39Z</time>
      </trkpt>
      <trkpt lat="31.51411000" lon="34.66628000">
        <ele>118.00000</ele>
        <time>2010-01-01T01:43:51Z</time>
      </trkpt>
      <trkpt lat="31.51402000" lon="34.66639000">
        <ele>119.00000</ele>
        <time>2010-01-01T01:43:56Z</time>
      </trkpt>
      <trkpt lat="31.51392000" lon="34.66663000">
        <ele>119.00000</ele>
        <time>2010-01-01T01:44:05Z</time>
      </trkpt>
      <trkpt lat="31.51389000" lon="34.66680000">
        <ele>119.00000</ele>
        <time>2010-01-01T01:44:11Z</time>
      </trkpt>
      <trkpt lat="31.51384000" lon="34.66696000">
        <ele>120.00000</ele>
        <time>2010-01-01T01:44:17Z</time>
      </trkpt>
      <trkpt lat="31.51377000" lon="34.66705000">
        <ele>120.00000</ele>
        <time>2010-01-01T01:44:21Z</time>
      </trkpt>
      <trkpt lat="31.51374000" lon="34.66705000">
        <ele>120.00000</ele>
        <time>2010-01-01T01:44:22Z</time>
      </trkpt>
      <trkpt lat="31.51373000" lon="34.66705000">
        <ele>120.00000</ele>
        <time>2010-01-01T01:44:22Z</time>
      </trkpt>
      <trkpt lat="31.51365000" lon="34.66698000">
        <ele>120.00000</ele>
        <time>2010-01-01T01:44:26Z</time>
      </trkpt>
      <trkpt lat="31.51360000" lon="34.66692000">
        <ele>119.00000</ele>
        <time>2010-01-01T01:44:29Z</time>
      </trkpt>
      <trkpt lat="31.51355000" lon="34.66676000">
        <ele>119.00000</ele>
        <time>2010-01-01T01:44:35Z</time>
      </trkpt>
      <trkpt lat="31.51351000" lon="34.66670000">
        <ele>119.00000</ele>
        <time>2010-01-01T01:44:38Z</time>
      </trkpt>
      <trkpt lat="31.51335000" lon="34.66659000">
        <ele>120.00000</ele>
        <time>2010-01-01T01:44:45Z</time>
      </trkpt>
      <trkpt lat="31.51310000" lon="34.66624000">
        <ele>123.00000</ele>
        <time>2010-01-01T01:45:01Z</time>
      </trkpt>
      <trkpt lat="31.51307000" lon="34.66622000">
        <ele>123.00000</ele>
        <time>2010-01-01T01:45:02Z</time>
      </trkpt>
      <trkpt lat="31.51307000" lon="34.66621000">
        <ele>123.00000</ele>
        <time>2010-01-01T01:45:02Z</time>
      </trkpt>
      <trkpt lat="31.51288000" lon="34.66611000">
        <ele>125.00000</ele>
        <time>2010-01-01T01:45:11Z</time>
      </trkpt>
      <trkpt lat="31.51277000" lon="34.66608000">
        <ele>125.00000</ele>
        <time>2010-01-01T01:45:15Z</time>
      </trkpt>
      <trkpt lat="31.51256000" lon="34.66608000">
        <ele>123.00000</ele>
        <time>2010-01-01T01:45:24Z</time>
      </trkpt>
      <trkpt lat="31.51221000" lon="34.66629000">
        <ele>122.00000</ele>
        <time>2010-01-01T01:45:39Z</time>
      </trkpt>
      <trkpt lat="31.51199000" lon="34.66629000">
        <ele>122.00000</ele>
        <time>2010-01-01T01:45:48Z</time>
      </trkpt>
      <trkpt lat="31.51189000" lon="34.66625000">
        <ele>121.00000</ele>
        <time>2010-01-01T01:45:52Z</time>
      </trkpt>
      <trkpt lat="31.51182000" lon="34.66629000">
        <ele>121.00000</ele>
        <time>2010-01-01T01:45:56Z</time>
      </trkpt>
      <trkpt lat="31.51172000" lon="34.66629000">
        <ele>120.00000</ele>
        <time>2010-01-01T01:46:00Z</time>
      </trkpt>
      <trkpt lat="31.51171000" lon="34.66629000">
        <ele>120.00000</ele>
        <time>2010-01-01T01:46:00Z</time>
      </trkpt>
      <trkpt lat="31.51134000" lon="34.66616000">
        <ele>117.00000</ele>
        <time>2010-01-01T01:46:15Z</time>
      </trkpt>
      <trkpt lat="31.51101000" lon="34.66602000">
        <ele>115.00000</ele>
        <time>2010-01-01T01:46:29Z</time>
      </trkpt>
      <trkpt lat="31.51082000" lon="34.66590000">
        <ele>113.00000</ele>
        <time>2010-01-01T01:46:38Z</time>
      </trkpt>
      <trkpt lat="31.51072000" lon="34.66578000">
        <ele>112.00000</ele>
        <time>2010-01-01T01:46:44Z</time>
      </trkpt>
      <trkpt lat="31.51054000" lon="34.66565000">
        <ele>111.00000</ele>
        <time>2010-01-01T01:46:52Z</time>
      </trkpt>
      <trkpt lat="31.51017000" lon="34.66551000">
        <ele>111.00000</ele>
        <time>2010-01-01T01:47:08Z</time>
      </trkpt>
      <trkpt lat="31.51004000" lon="34.66543000">
        <ele>111.00000</ele>
        <time>2010-01-01T01:47:14Z</time>
      </trkpt>
      <trkpt lat="31.50990000" lon="34.66524000">
        <ele>112.00000</ele>
        <time>2010-01-01T01:47:22Z</time>
      </trkpt>
      <trkpt lat="31.50981000" lon="34.66518000">
        <ele>111.00000</ele>
        <time>2010-01-01T01:47:26Z</time>
      </trkpt>
      <trkpt lat="31.50959000" lon="34.66517000">
        <ele>110.00000</ele>
        <time>2010-01-01T01:47:35Z</time>
      </trkpt>
      <trkpt lat="31.50942000" lon="34.66512000">
        <ele>108.00000</ele>
        <time>2010-01-01T01:47:42Z</time>
      </trkpt>
      <trkpt lat="31.50925000" lon="34.66505000">
        <ele>107.00000</ele>
        <time>2010-01-01T01:47:49Z</time>
      </trkpt>
      <trkpt lat="31.50889000" lon="34.66503000">
        <ele>106.00000</ele>
        <time>2010-01-01T01:48:04Z</time>
      </trkpt>
      <trkpt lat="31.50888000" lon="34.66503000">
        <ele>106.00000</ele>
        <time>2010-01-01T01:48:04Z</time>
      </trkpt>
      <trkpt lat="31.50876000" lon="34.66489000">
        <ele>104.00000</ele>
        <time>2010-01-01T01:48:11Z</time>
      </trkpt>
      <trkpt lat="31.50870000" lon="34.66485000">
        <ele>104.00000</ele>
        <time>2010-01-01T01:48:14Z</time>
      </trkpt>
      <trkpt lat="31.50863000" lon="34.66470000">
        <ele>103.00000</ele>
        <time>2010-01-01T01:48:20Z</time>
      </trkpt>
      <trkpt lat="31.50861000" lon="34.66454000">
        <ele>103.00000</ele>
        <time>2010-01-01T01:48:25Z</time>
      </trkpt>
      <trkpt lat="31.50865000" lon="34.66409000">
        <ele>104.00000</ele>
        <time>2010-01-01T01:48:41Z</time>
      </trkpt>
      <trkpt lat="31.50878000" lon="34.66345000">
        <ele>108.00000</ele>
        <time>2010-01-01T01:49:03Z</time>
      </trkpt>
      <trkpt lat="31.50900000" lon="34.66320000">
        <ele>108.00000</ele>
        <time>2010-01-01T01:49:15Z</time>
      </trkpt>
      <trkpt lat="31.50907000" lon="34.66294000">
        <ele>106.00000</ele>
        <time>2010-01-01T01:49:25Z</time>
      </trkpt>
      <trkpt lat="31.50908000" lon="34.66269000">
        <ele>105.00000</ele>
        <time>2010-01-01T01:49:33Z</time>
      </trkpt>
      <trkpt lat="31.50896000" lon="34.66203000">
        <ele>105.00000</ele>
        <time>2010-01-01T01:49:56Z</time>
      </trkpt>
      <trkpt lat="31.50895000" lon="34.66183000">
        <ele>105.00000</ele>
        <time>2010-01-01T01:50:03Z</time>
      </trkpt>
      <trkpt lat="31.50901000" lon="34.66158000">
        <ele>105.00000</ele>
        <time>2010-01-01T01:50:12Z</time>
      </trkpt>
      <trkpt lat="31.50953000" lon="34.66072000">
        <ele>104.00000</ele>
        <time>2010-01-01T01:50:48Z</time>
      </trkpt>
      <trkpt lat="31.50986000" lon="34.65971000">
        <ele>99.000000</ele>
        <time>2010-01-01T01:51:25Z</time>
      </trkpt>
      <trkpt lat="31.50999000" lon="34.65831000">
        <ele>101.00000</ele>
        <time>2010-01-01T01:52:13Z</time>
      </trkpt>
      <trkpt lat="31.50990000" lon="34.65799000">
        <ele>100.00000</ele>
        <time>2010-01-01T01:52:24Z</time>
      </trkpt>
      <trkpt lat="31.50982000" lon="34.65781000">
        <ele>100.00000</ele>
        <time>2010-01-01T01:52:31Z</time>
      </trkpt>
      <trkpt lat="31.50968000" lon="34.65768000">
        <ele>99.000000</ele>
        <time>2010-01-01T01:52:38Z</time>
      </trkpt>
      <trkpt lat="31.50955000" lon="34.65746000">
        <ele>99.000000</ele>
        <time>2010-01-01T01:52:48Z</time>
      </trkpt>
      <trkpt lat="31.50964000" lon="34.65640000">
        <ele>99.000000</ele>
        <time>2010-01-01T01:53:24Z</time>
      </trkpt>
      <trkpt lat="31.50964000" lon="34.65564000">
        <ele>99.000000</ele>
        <time>2010-01-01T01:53:50Z</time>
      </trkpt>
      <trkpt lat="31.50964000" lon="34.65529000">
        <ele>98.000000</ele>
        <time>2010-01-01T01:54:02Z</time>
      </trkpt>
      <trkpt lat="31.50958000" lon="34.65486000">
        <ele>98.000000</ele>
        <time>2010-01-01T01:54:17Z</time>
      </trkpt>
      <trkpt lat="31.50958000" lon="34.65415000">
        <ele>99.000000</ele>
        <time>2010-01-01T01:54:41Z</time>
      </trkpt>
      <trkpt lat="31.50980000" lon="34.65340000">
        <ele>96.000000</ele>
        <time>2010-01-01T01:55:08Z</time>
      </trkpt>
      <trkpt lat="31.50988000" lon="34.65296000">
        <ele>96.000000</ele>
        <time>2010-01-01T01:55:23Z</time>
      </trkpt>
      <trkpt lat="31.50991000" lon="34.65252000">
        <ele>96.000000</ele>
        <time>2010-01-01T01:55:38Z</time>
      </trkpt>
      <trkpt lat="31.51007000" lon="34.65216000">
        <ele>99.000000</ele>
        <time>2010-01-01T01:55:52Z</time>
      </trkpt>
      <trkpt lat="31.51018000" lon="34.65200000">
        <ele>100.00000</ele>
        <time>2010-01-01T01:55:59Z</time>
      </trkpt>
      <trkpt lat="31.51030000" lon="34.65187000">
        <ele>100.00000</ele>
        <time>2010-01-01T01:56:06Z</time>
      </trkpt>
      <trkpt lat="31.51090000" lon="34.65190000">
        <ele>95.000000</ele>
        <time>2010-01-01T01:56:30Z</time>
      </trkpt>
      <trkpt lat="31.51089000" lon="34.65190000">
        <ele>95.000000</ele>
        <time>2010-01-01T01:56:30Z</time>
      </trkpt>
      <trkpt lat="31.51134000" lon="34.65134000">
        <ele>96.000000</ele>
        <time>2010-01-01T01:56:57Z</time>
      </trkpt>
      <trkpt lat="31.51143000" lon="34.65037000">
        <ele>95.000000</ele>
        <time>2010-01-01T01:57:30Z</time>
      </trkpt>
      <trkpt lat="31.51158000" lon="34.64971000">
        <ele>93.000000</ele>
        <time>2010-01-01T01:57:53Z</time>
      </trkpt>
      <trkpt lat="31.51158000" lon="34.64970000">
        <ele>93.000000</ele>
        <time>2010-01-01T01:57:54Z</time>
      </trkpt>
      <trkpt lat="31.51151000" lon="34.64942000">
        <ele>94.000000</ele>
        <time>2010-01-01T01:58:03Z</time>
      </trkpt>
      <trkpt lat="31.51151000" lon="34.64941000">
        <ele>94.000000</ele>
        <time>2010-01-01T01:58:04Z</time>
      </trkpt>
      <trkpt lat="31.51148000" lon="34.64921000">
        <ele>95.000000</ele>
        <time>2010-01-01T01:58:11Z</time>
      </trkpt>
      <trkpt lat="31.51152000" lon="34.64899000">
        <ele>95.000000</ele>
        <time>2010-01-01T01:58:18Z</time>
      </trkpt>
      <trkpt lat="31.51153000" lon="34.64833000">
        <ele>94.000000</ele>
        <time>2010-01-01T01:58:41Z</time>
      </trkpt>
      <trkpt lat="31.51152000" lon="34.64833000">
        <ele>95.000000</ele>
        <time>2010-01-01T01:58:41Z</time>
      </trkpt>
      <trkpt lat="31.51135000" lon="34.64831000">
        <ele>96.000000</ele>
        <time>2010-01-01T01:58:48Z</time>
      </trkpt>
      <trkpt lat="31.51125000" lon="34.64836000">
        <ele>96.000000</ele>
        <time>2010-01-01T01:58:53Z</time>
      </trkpt>
      <trkpt lat="31.51119000" lon="34.64851000">
        <ele>97.000000</ele>
        <time>2010-01-01T01:58:58Z</time>
      </trkpt>
      <trkpt lat="31.51105000" lon="34.64843000">
        <ele>97.000000</ele>
        <time>2010-01-01T01:59:04Z</time>
      </trkpt>
      <trkpt lat="31.51104000" lon="34.64843000">
        <ele>97.000000</ele>
        <time>2010-01-01T01:59:05Z</time>
      </trkpt>
      <trkpt lat="31.51012000" lon="34.64819000">
        <ele>96.000000</ele>
        <time>2010-01-01T01:59:43Z</time>
      </trkpt>
    </trkseg>
  </trk>
</gpx>

